Time,TemperatureF,DewpointF,PressureIn,WindDirection,WindDirectionDegrees,WindSpeedMPH,WindSpeedGustMPH,Humidity,HourlyPrecipIn,Conditions,Clouds,dailyrainin,SoftwareType,DateUTC
2013-11-19 00:00:00,19.6,14.1,29.09,NNW,338,1.2,0.0,79,0.00,CLR,,0.00,WeatherDisplay:10.37,2013-11-19 06:00:00,
2013-11-19 00:01:00,19.6,14.1,29.09,NNW,338,0.0,0.0,79,0.00,CLR,,0.00,WeatherDisplay:10.37,2013-11-19 06:01:00,
2013-11-19 00:03:00,19.6,14.1,29.09,NNW,338,0.0,0.0,79,0.00,CLR,,0.00,WeatherDisplay:10.37,2013-11-19 06:03:00,
2013-11-19 00:04:00,19.4,14.2,29.09,NNW,338,0.0,0.0,80,0.00,CLR,,0.00,WeatherDisplay:10.37,2013-11-19 06:04:00,
2013-11-19 00:05:00,19.4,14.2,29.09,NNW,338,0.0,0.0,80,0.00,CLR,,0.00,WeatherDisplay:10.37,2013-11-19 06:05:00,
2013-11-19 00:06:00,19.4,14.2,29.09,NNW,338,0.0,0.0,80,0.00,CLR,,0.00,WeatherDisplay:10.37,2013-11-19 06:06:00,
2013-11-19 00:08:00,19.4,14.2,29.09,NNW,338,0.0,0.0,80,0.00,CLR,,0.00,WeatherDisplay:10.37,2013-11-19 06:08:00,
2013-11-19 00:09:00,19.2,14.1,29.03,NNW,338,0.0,0.0,80,0.00,CLR,,0.00,WeatherDisplay:10.37,2013-11-19 06:09:00,
2013-11-19 00:10:00,19.3,14.1,29.06,NNW,338,0.0,0.0,80,0.00,CLR,,0.00,WeatherDisplay:10.37,2013-11-19 06:10:00,
2013-11-19 00:12:00,19.2,13.8,29.03,NNW,338,0.0,0.0,79,0.00,CLR,,0.00,WeatherDisplay:10.37,2013-11-19 06:12:00,
2013-11-19 00:13:00,19.4,13.9,29.03,NNE,22,0.0,0.0,79,0.00,CLR,,0.00,WeatherDisplay:10.37,2013-11-19 06:13:00,
2013-11-19 00:14:00,19.4,13.9,29.03,NNE,22,0.0,0.0,79,0.00,CLR,,0.00,WeatherDisplay:10.37,2013-11-19 06:14:00,
2013-11-19 00:15:00,19.4,13.9,29.03,NNE,22,0.0,0.0,79,0.00,CLR,,0.00,WeatherDisplay:10.37,2013-11-19 06:15:00,
2013-11-19 00:17:00,19.4,13.9,29.03,NNE,22,0.0,0.0,79,0.00,CLR,,0.00,WeatherDisplay:10.37,2013-11-19 06:17:00,
2013-11-19 00:18:00,19.4,14.2,29.03,NNE,22,0.0,0.0,80,0.00,CLR,,0.00,WeatherDisplay:10.37,2013-11-19 06:18:00,
2013-11-19 00:19:00,19.6,14.1,29.03,NNE,22,0.0,0.0,79,0.00,CLR,,0.00,WeatherDisplay:10.37,2013-11-19 06:19:00,
2013-11-19 00:20:00,19.6,14.1,29.03,NNE,22,0.0,0.0,79,0.00,CLR,,0.00,WeatherDisplay:10.37,2013-11-19 06:20:00,
2013-11-19 00:21:00,19.6,14.4,29.03,NNE,22,0.0,0.0,80,0.00,CLR,,0.00,WeatherDisplay:10.37,2013-11-19 06:21:00,
2013-11-19 00:22:00,19.6,14.4,29.03,NNE,22,0.0,0.0,80,0.00,CLR,,0.00,WeatherDisplay:10.37,2013-11-19 06:22:00,
2013-11-19 00:24:00,19.6,14.4,29.03,NNE,22,0.0,0.0,80,0.00,CLR,,0.00,WeatherDisplay:10.37,2013-11-19 06:24:00,
2013-11-19 00:26:00,19.6,14.4,29.06,NNE,22,0.0,0.0,80,0.00,CLR,,0.00,WeatherDisplay:10.37,2013-11-19 06:26:00,
2013-11-19 00:28:00,19.4,14.5,29.06,NNE,22,0.0,0.0,81,0.00,CLR,,0.00,WeatherDisplay:10.37,2013-11-19 06:28:00,
2013-11-19 00:29:00,19.2,14.3,29.06,NNE,22,0.0,0.0,81,0.00,CLR,,0.00,WeatherDisplay:10.37,2013-11-19 06:29:00,
2013-11-19 00:31:00,19.2,14.3,29.06,NNE,22,0.0,0.0,81,0.00,CLR,,0.00,WeatherDisplay:10.37,2013-11-19 06:31:00,
2013-11-19 00:33:00,19.2,14.3,29.06,NNE,22,0.0,0.0,81,0.00,CLR,,0.00,WeatherDisplay:10.37,2013-11-19 06:33:00,
2013-11-19 00:34:00,19.0,14.2,29.06,NNE,22,0.0,0.0,81,0.00,CLR,,0.00,WeatherDisplay:10.37,2013-11-19 06:34:00,
2013-11-19 00:36:00,19.2,14.3,29.06,NNE,22,0.0,0.0,81,0.00,CLR,,0.00,WeatherDisplay:10.37,2013-11-19 06:36:00,
2013-11-19 00:37:00,19.2,14.3,29.06,NNE,22,0.0,0.0,81,0.00,CLR,,0.00,WeatherDisplay:10.37,2013-11-19 06:37:00,
2013-11-19 00:38:00,19.2,14.3,29.06,NNE,22,0.0,0.0,81,0.00,CLR,,0.00,WeatherDisplay:10.37,2013-11-19 06:38:00,
2013-11-19 00:39:00,19.2,14.3,29.06,NNE,22,0.0,0.0,81,0.00,CLR,,0.00,WeatherDisplay:10.37,2013-11-19 06:39:00,
2013-11-19 00:40:00,19.2,14.3,29.06,NNE,22,0.0,0.0,81,0.00,CLR,,0.00,WeatherDisplay:10.37,2013-11-19 06:40:00,
2013-11-19 00:41:00,19.2,14.3,29.06,NNE,22,0.0,0.0,81,0.00,CLR,,0.00,WeatherDisplay:10.37,2013-11-19 06:41:00,
2013-11-19 00:42:00,19.2,14.3,29.06,NNE,22,0.0,0.0,81,0.00,CLR,,0.00,WeatherDisplay:10.37,2013-11-19 06:42:00,
2013-11-19 00:43:00,19.4,14.8,29.06,NE,45,0.0,0.0,82,0.00,CLR,,0.00,WeatherDisplay:10.37,2013-11-19 06:43:00,
2013-11-19 00:44:00,19.4,14.8,29.06,NE,45,0.0,0.0,82,0.00,CLR,,0.00,WeatherDisplay:10.37,2013-11-19 06:44:00,
2013-11-19 00:45:00,19.4,15.1,29.06,NE,45,0.0,0.0,83,0.00,CLR,,0.00,WeatherDisplay:10.37,2013-11-19 06:45:00,
2013-11-19 00:46:00,19.4,15.4,29.06,NE,45,0.0,0.0,84,0.00,CLR,,0.00,WeatherDisplay:10.37,2013-11-19 06:46:00,
2013-11-19 00:47:00,19.6,15.5,29.06,NE,45,0.0,0.0,84,0.00,CLR,,0.00,WeatherDisplay:10.37,2013-11-19 06:47:00,
2013-11-19 00:48:00,19.6,15.8,29.06,NE,45,0.0,0.0,85,0.00,CLR,,0.00,WeatherDisplay:10.37,2013-11-19 06:48:00,
2013-11-19 00:49:00,19.6,15.8,29.06,NE,45,0.0,0.0,85,0.00,CLR,,0.00,WeatherDisplay:10.37,2013-11-19 06:49:00,
2013-11-19 00:50:00,19.6,15.8,29.06,NE,45,0.0,0.0,85,0.00,CLR,,0.00,WeatherDisplay:10.37,2013-11-19 06:50:00,
2013-11-19 00:52:00,19.6,15.8,29.06,NE,45,0.0,0.0,85,0.00,CLR,,0.00,WeatherDisplay:10.37,2013-11-19 06:52:00,
2013-11-19 00:53:00,19.6,15.8,29.06,NE,45,0.0,0.0,85,0.00,CLR,,0.00,WeatherDisplay:10.37,2013-11-19 06:53:00,
2013-11-19 00:54:00,19.4,15.4,29.06,NE,45,0.0,0.0,84,0.00,CLR,,0.00,WeatherDisplay:10.37,2013-11-19 06:54:00,
2013-11-19 00:55:00,19.4,15.4,29.09,NE,45,0.0,0.0,84,0.00,CLR,,0.00,WeatherDisplay:10.37,2013-11-19 06:55:00,
2013-11-19 00:57:00,19.2,14.9,29.09,NE,45,0.0,0.0,83,0.00,CLR,,0.00,WeatherDisplay:10.37,2013-11-19 06:57:00,
2013-11-19 00:58:00,19.2,14.6,29.09,NE,45,0.0,0.0,82,0.00,CLR,,0.00,WeatherDisplay:10.37,2013-11-19 06:58:00,
2013-11-19 00:59:00,19.2,14.6,29.09,NE,45,0.0,0.0,82,0.00,CLR,,0.00,WeatherDisplay:10.37,2013-11-19 06:59:00,
2013-11-19 01:00:00,19.2,14.6,29.09,NE,45,0.0,0.0,82,0.00,CLR,,0.00,WeatherDisplay:10.37,2013-11-19 07:00:00,
2013-11-19 01:02:00,19.0,14.4,29.09,NE,45,0.0,0.0,82,0.00,CLR,,0.00,WeatherDisplay:10.37,2013-11-19 07:02:00,
2013-11-19 01:03:00,19.0,14.4,29.09,NE,45,0.0,0.0,82,0.00,CLR,,0.00,WeatherDisplay:10.37,2013-11-19 07:03:00,
2013-11-19 01:04:00,19.0,14.4,29.09,NE,45,0.0,0.0,82,0.00,CLR,,0.00,WeatherDisplay:10.37,2013-11-19 07:04:00,
2013-11-19 01:05:00,19.0,14.2,29.09,NE,45,0.0,0.0,81,0.00,CLR,,0.00,WeatherDisplay:10.37,2013-11-19 07:05:00,
2013-11-19 01:07:00,19.0,14.2,29.09,NE,45,0.0,0.0,81,0.00,CLR,,0.00,WeatherDisplay:10.37,2013-11-19 07:07:00,
2013-11-19 01:09:00,19.0,14.2,29.09,NE,45,0.0,0.0,81,0.00,CLR,,0.00,WeatherDisplay:10.37,2013-11-19 07:09:00,
2013-11-19 01:10:00,19.0,14.2,29.09,NE,45,0.0,0.0,81,0.00,CLR,,0.00,WeatherDisplay:10.37,2013-11-19 07:10:00,
2013-11-19 01:11:00,19.0,14.2,29.09,SSW,202,0.0,0.0,81,0.00,CLR,,0.00,WeatherDisplay:10.37,2013-11-19 07:11:00,
2013-11-19 01:13:00,19.0,14.2,29.09,South,180,0.0,0.0,81,0.00,CLR,,0.00,WeatherDisplay:10.37,2013-11-19 07:13:00,
2013-11-19 01:14:00,19.0,14.4,29.09,SSW,202,0.0,0.0,82,0.00,CLR,,0.00,WeatherDisplay:10.37,2013-11-19 07:14:00,
2013-11-19 01:15:00,19.0,14.4,29.09,SSW,202,0.0,0.0,82,0.00,CLR,,0.00,WeatherDisplay:10.37,2013-11-19 07:15:00,
2013-11-19 01:16:00,19.2,14.6,29.09,South,180,1.2,0.0,82,0.00,CLR,,0.00,WeatherDisplay:10.37,2013-11-19 07:16:00,
2013-11-19 01:19:00,19.2,14.6,29.09,SW,225,1.2,0.0,82,0.00,CLR,,0.00,WeatherDisplay:10.37,2013-11-19 07:19:00,
2013-11-19 01:20:00,19.2,14.6,29.09,SW,216,0.0,2.0,82,0.00,CLR,,0.00,WeatherDisplay:10.37,2013-11-19 07:20:00,
2013-11-19 01:21:00,19.2,14.6,29.09,SW,225,0.0,0.0,82,0.00,CLR,,0.00,WeatherDisplay:10.37,2013-11-19 07:21:00,
2013-11-19 01:24:00,19.4,14.8,29.09,SW,225,0.0,0.0,82,0.00,CLR,,0.00,WeatherDisplay:10.37,2013-11-19 07:24:00,
2013-11-19 01:25:00,19.2,14.6,29.09,WNW,292,0.0,0.0,82,0.00,CLR,,0.00,WeatherDisplay:10.37,2013-11-19 07:25:00,
2013-11-19 01:26:00,19.2,14.6,29.09,WNW,292,0.0,0.0,82,0.00,CLR,,0.00,WeatherDisplay:10.37,2013-11-19 07:26:00,
2013-11-19 01:29:00,19.2,14.6,29.09,SW,225,0.0,0.0,82,0.00,CLR,,0.00,WeatherDisplay:10.37,2013-11-19 07:29:00,
2013-11-19 01:30:00,19.2,14.6,29.09,SW,225,1.2,0.0,82,0.00,CLR,,0.00,WeatherDisplay:10.37,2013-11-19 07:30:00,
2013-11-19 01:31:00,19.2,14.6,29.09,SW,225,1.2,0.0,82,0.00,CLR,,0.00,WeatherDisplay:10.37,2013-11-19 07:31:00,
2013-11-19 01:34:00,19.4,14.8,29.09,WSW,248,1.2,0.0,82,0.00,CLR,,0.00,WeatherDisplay:10.37,2013-11-19 07:34:00,
2013-11-19 01:35:00,19.4,14.8,29.09,SW,225,0.0,0.0,82,0.00,CLR,,0.00,WeatherDisplay:10.37,2013-11-19 07:35:00,
2013-11-19 01:36:00,19.4,14.8,29.09,SW,225,0.0,0.0,82,0.00,CLR,,0.00,WeatherDisplay:10.37,2013-11-19 07:36:00,
2013-11-19 01:37:00,19.4,14.8,29.09,SW,225,0.0,0.0,82,0.00,CLR,,0.00,WeatherDisplay:10.37,2013-11-19 07:37:00,
2013-11-19 01:39:00,19.2,14.6,29.09,SW,225,0.0,0.0,82,0.00,CLR,,0.00,WeatherDisplay:10.37,2013-11-19 07:39:00,
2013-11-19 01:40:00,19.2,14.6,29.09,SW,225,0.0,0.0,82,0.00,CLR,,0.00,WeatherDisplay:10.37,2013-11-19 07:40:00,
2013-11-19 01:42:00,19.2,14.6,29.09,SW,225,0.0,0.0,82,0.00,CLR,,0.00,WeatherDisplay:10.37,2013-11-19 07:42:00,
2013-11-19 01:44:00,19.2,14.6,29.09,SW,225,0.0,0.0,82,0.00,CLR,,0.00,WeatherDisplay:10.37,2013-11-19 07:44:00,
2013-11-19 01:45:00,19.2,14.6,29.09,SW,225,0.0,0.0,82,0.00,CLR,,0.00,WeatherDisplay:10.37,2013-11-19 07:45:00,
2013-11-19 01:47:00,19.2,14.6,29.09,SW,225,0.0,0.0,82,0.00,CLR,,0.00,WeatherDisplay:10.37,2013-11-19 07:47:00,
2013-11-19 01:49:00,19.2,14.6,29.09,SW,225,0.0,0.0,82,0.00,CLR,,0.00,WeatherDisplay:10.37,2013-11-19 07:49:00,
2013-11-19 01:50:00,19.2,14.6,29.09,SW,225,0.0,0.0,82,0.00,CLR,,0.00,WeatherDisplay:10.37,2013-11-19 07:50:00,
2013-11-19 01:51:00,19.2,14.9,29.09,SW,225,0.0,0.0,83,0.00,CLR,,0.00,WeatherDisplay:10.37,2013-11-19 07:51:00,
2013-11-19 01:52:00,19.0,14.7,29.09,SW,225,0.0,0.0,83,0.00,CLR,,0.00,WeatherDisplay:10.37,2013-11-19 07:52:00,
2013-11-19 01:54:00,19.0,14.4,29.09,SW,225,0.0,0.0,82,0.00,CLR,,0.00,WeatherDisplay:10.37,2013-11-19 07:54:00,
2013-11-19 01:55:00,19.0,14.4,29.09,SW,225,0.0,0.0,82,0.00,CLR,,0.00,WeatherDisplay:10.37,2013-11-19 07:55:00,
2013-11-19 01:56:00,19.0,14.4,29.09,WNW,292,1.4,0.0,82,0.00,CLR,,0.00,WeatherDisplay:10.37,2013-11-19 07:56:00,
2013-11-19 01:57:00,19.0,14.4,29.09,WNW,292,1.2,0.0,82,0.00,CLR,,0.00,WeatherDisplay:10.37,2013-11-19 07:57:00,
2013-11-19 01:58:00,19.0,14.4,29.09,WNW,292,1.2,1.2,82,0.00,CLR,,0.00,WeatherDisplay:10.37,2013-11-19 07:58:00,
2013-11-19 01:59:00,19.0,14.4,29.09,SSW,202,0.0,0.0,82,0.00,CLR,,0.00,WeatherDisplay:10.37,2013-11-19 07:59:00,
2013-11-19 02:00:00,19.2,14.6,29.09,SSW,202,0.0,0.0,82,0.00,CLR,,0.00,WeatherDisplay:10.37,2013-11-19 08:00:00,
2013-11-19 02:02:00,19.2,14.9,29.09,SSW,202,0.0,0.0,83,0.00,CLR,,0.00,WeatherDisplay:10.37,2013-11-19 08:02:00,
2013-11-19 02:03:00,19.0,14.7,29.09,SSW,202,0.0,0.0,83,0.00,CLR,,0.00,WeatherDisplay:10.37,2013-11-19 08:03:00,
2013-11-19 02:04:00,19.0,14.4,29.09,SSW,202,0.0,0.0,82,0.00,CLR,,0.00,WeatherDisplay:10.37,2013-11-19 08:04:00,
2013-11-19 02:05:00,19.0,14.7,29.09,SSW,202,0.0,0.0,83,0.00,CLR,,0.00,WeatherDisplay:10.37,2013-11-19 08:05:00,
2013-11-19 02:06:00,19.0,14.7,29.09,SSW,202,0.0,0.0,83,0.00,CLR,,0.00,WeatherDisplay:10.37,2013-11-19 08:06:00,
2013-11-19 02:07:00,19.0,14.7,29.09,SSW,202,0.0,0.0,83,0.00,CLR,,0.00,WeatherDisplay:10.37,2013-11-19 08:07:00,
2013-11-19 02:08:00,18.9,14.6,29.09,SSW,202,1.2,0.0,83,0.00,CLR,,0.00,WeatherDisplay:10.37,2013-11-19 08:08:00,
2013-11-19 02:10:00,18.9,14.3,29.09,WNW,292,2.3,2.3,82,0.00,CLR,,0.00,WeatherDisplay:10.37,2013-11-19 08:10:00,
2013-11-19 02:11:00,19.0,14.4,29.09,WNW,292,2.3,2.3,82,0.00,CLR,,0.00,WeatherDisplay:10.37,2013-11-19 08:11:00,
2013-11-19 02:12:00,19.0,14.7,29.09,WNW,292,1.2,1.2,83,0.00,CLR,,0.00,WeatherDisplay:10.37,2013-11-19 08:12:00,
2013-11-19 02:13:00,19.0,14.7,29.09,WNW,292,1.2,0.0,83,0.00,CLR,,0.00,WeatherDisplay:10.37,2013-11-19 08:13:00,
2013-11-19 02:15:00,19.0,14.7,29.09,WNW,292,0.0,0.0,83,0.00,CLR,,0.00,WeatherDisplay:10.37,2013-11-19 08:15:00,
2013-11-19 02:16:00,18.9,14.6,29.09,WNW,292,0.0,0.0,83,0.00,CLR,,0.00,WeatherDisplay:10.37,2013-11-19 08:16:00,
2013-11-19 02:17:00,18.9,14.6,29.09,WNW,292,0.0,0.0,83,0.00,CLR,,0.00,WeatherDisplay:10.37,2013-11-19 08:17:00,
2013-11-19 02:18:00,18.9,14.6,29.09,SW,225,0.0,0.0,83,0.00,CLR,,0.00,WeatherDisplay:10.37,2013-11-19 08:18:00,
2013-11-19 02:19:00,18.9,14.6,29.09,SW,225,0.0,0.0,83,0.00,CLR,,0.00,WeatherDisplay:10.37,2013-11-19 08:19:00,
2013-11-19 02:21:00,18.9,14.6,29.09,SW,225,0.0,0.0,83,0.00,CLR,,0.00,WeatherDisplay:10.37,2013-11-19 08:21:00,
2013-11-19 02:22:00,18.9,14.6,29.09,SW,225,0.0,0.0,83,0.00,CLR,,0.00,WeatherDisplay:10.37,2013-11-19 08:22:00,
2013-11-19 02:23:00,18.9,14.6,29.09,SW,225,0.0,0.0,83,0.00,CLR,,0.00,WeatherDisplay:10.37,2013-11-19 08:23:00,
2013-11-19 02:24:00,18.9,14.6,29.09,SW,225,0.0,0.0,83,0.00,CLR,,0.00,WeatherDisplay:10.37,2013-11-19 08:24:00,
2013-11-19 02:26:00,19.0,14.7,29.09,SW,225,0.0,0.0,83,0.00,CLR,,0.00,WeatherDisplay:10.37,2013-11-19 08:26:00,
2013-11-19 02:27:00,19.0,14.7,29.09,SW,225,0.0,0.0,83,0.00,CLR,,0.00,WeatherDisplay:10.37,2013-11-19 08:27:00,
2013-11-19 02:28:00,19.0,14.7,29.09,SW,225,0.0,0.0,83,0.00,CLR,,0.00,WeatherDisplay:10.37,2013-11-19 08:28:00,
2013-11-19 02:29:00,18.9,14.6,29.09,SW,225,0.0,0.0,83,0.00,CLR,,0.00,WeatherDisplay:10.37,2013-11-19 08:29:00,
2013-11-19 02:31:00,18.7,14.4,29.09,SW,225,0.0,0.0,83,0.00,CLR,,0.00,WeatherDisplay:10.37,2013-11-19 08:31:00,
2013-11-19 02:32:00,18.7,14.4,29.09,SW,225,0.0,0.0,83,0.00,CLR,,0.00,WeatherDisplay:10.37,2013-11-19 08:32:00,
2013-11-19 02:33:00,18.7,14.1,29.09,SW,225,0.0,0.0,82,0.00,CLR,,0.00,WeatherDisplay:10.37,2013-11-19 08:33:00,
2013-11-19 02:34:00,18.7,14.1,29.09,SW,225,0.0,0.0,82,0.00,CLR,,0.00,WeatherDisplay:10.37,2013-11-19 08:34:00,
2013-11-19 02:36:00,18.5,13.9,29.09,SW,225,0.0,0.0,82,0.00,CLR,,0.00,WeatherDisplay:10.37,2013-11-19 08:36:00,
2013-11-19 02:37:00,18.5,13.9,29.09,SW,225,0.0,0.0,82,0.00,CLR,,0.00,WeatherDisplay:10.37,2013-11-19 08:37:00,
2013-11-19 02:38:00,18.3,13.7,29.09,SW,225,0.0,0.0,82,0.00,CLR,,0.00,WeatherDisplay:10.37,2013-11-19 08:38:00,
2013-11-19 02:39:00,18.3,13.7,29.09,SW,225,0.0,0.0,82,0.00,CLR,,0.00,WeatherDisplay:10.37,2013-11-19 08:39:00,
2013-11-19 02:42:00,18.1,13.6,29.09,SW,225,0.0,0.0,82,0.00,CLR,,0.00,WeatherDisplay:10.37,2013-11-19 08:42:00,
2013-11-19 02:43:00,18.1,13.6,29.09,SW,225,0.0,0.0,82,0.00,CLR,,0.00,WeatherDisplay:10.37,2013-11-19 08:43:00,
2013-11-19 02:44:00,18.1,13.6,29.09,SW,225,0.0,0.0,82,0.00,CLR,,0.00,WeatherDisplay:10.37,2013-11-19 08:44:00,
2013-11-19 02:48:00,18.1,13.8,29.09,SW,225,0.0,0.0,83,0.00,CLR,,0.00,WeatherDisplay:10.37,2013-11-19 08:48:00,
2013-11-19 02:49:00,18.0,13.7,29.09,SW,225,0.0,0.0,83,0.00,CLR,,0.00,WeatherDisplay:10.37,2013-11-19 08:49:00,
2013-11-19 02:50:00,17.8,13.5,29.09,SW,225,0.0,0.0,83,0.00,CLR,,0.00,WeatherDisplay:10.37,2013-11-19 08:50:00,
2013-11-19 02:53:00,17.8,13.5,29.09,SW,225,0.0,0.0,83,0.00,CLR,,0.00,WeatherDisplay:10.37,2013-11-19 08:53:00,
2013-11-19 02:54:00,17.8,13.5,29.09,SW,225,0.0,0.0,83,0.00,CLR,,0.00,WeatherDisplay:10.37,2013-11-19 08:54:00,
2013-11-19 02:55:00,17.8,13.5,29.06,SW,225,0.0,0.0,83,0.00,CLR,,0.00,WeatherDisplay:10.37,2013-11-19 08:55:00,
2013-11-19 02:58:00,17.8,13.5,29.06,SW,225,0.0,0.0,83,0.00,CLR,,0.00,WeatherDisplay:10.37,2013-11-19 08:58:00,
2013-11-19 02:59:00,17.8,13.5,29.06,SW,225,0.0,0.0,83,0.00,CLR,,0.00,WeatherDisplay:10.37,2013-11-19 08:59:00,
2013-11-19 03:00:00,17.8,13.5,29.06,SW,225,0.0,0.0,83,0.00,CLR,,0.00,WeatherDisplay:10.37,2013-11-19 09:00:00,
2013-11-19 03:03:00,17.8,13.5,29.06,SW,225,0.0,0.0,83,0.00,CLR,,0.00,WeatherDisplay:10.37,2013-11-19 09:03:00,
2013-11-19 03:04:00,17.8,13.5,29.06,SW,225,0.0,0.0,83,0.00,CLR,,0.00,WeatherDisplay:10.37,2013-11-19 09:04:00,
2013-11-19 03:05:00,17.8,13.5,29.06,SW,225,0.0,0.0,83,0.00,CLR,,0.00,WeatherDisplay:10.37,2013-11-19 09:05:00,
2013-11-19 03:09:00,17.6,13.3,29.06,SW,225,0.0,0.0,83,0.00,CLR,,0.00,WeatherDisplay:10.37,2013-11-19 09:09:00,
2013-11-19 03:10:00,17.6,13.3,29.09,SW,225,0.0,0.0,83,0.00,CLR,,0.00,WeatherDisplay:10.37,2013-11-19 09:10:00,
2013-11-19 03:11:00,17.4,13.1,29.09,SW,225,0.0,0.0,83,0.00,CLR,,0.00,WeatherDisplay:10.37,2013-11-19 09:11:00,
2013-11-19 03:14:00,17.4,13.1,29.09,WSW,248,0.0,0.0,83,0.00,CLR,,0.00,WeatherDisplay:10.37,2013-11-19 09:14:00,
2013-11-19 03:15:00,17.4,13.1,29.09,NW,315,0.0,0.0,83,0.00,CLR,,0.00,WeatherDisplay:10.37,2013-11-19 09:15:00,
2013-11-19 03:16:00,17.4,13.1,29.09,NW,315,0.0,0.0,83,0.00,CLR,,0.00,WeatherDisplay:10.37,2013-11-19 09:16:00,
2013-11-19 03:19:00,17.4,13.1,29.09,NNW,338,2.3,2.3,83,0.00,CLR,,0.00,WeatherDisplay:10.37,2013-11-19 09:19:00,
2013-11-19 03:20:00,17.4,13.1,29.09,NNW,338,2.3,2.3,83,0.00,CLR,,0.00,WeatherDisplay:10.37,2013-11-19 09:20:00,
2013-11-19 03:21:00,17.6,13.3,29.09,NNW,338,2.3,2.3,83,0.00,CLR,,0.00,WeatherDisplay:10.37,2013-11-19 09:21:00,
2013-11-19 03:22:00,17.6,13.3,29.09,NNW,338,2.4,2.4,83,0.00,CLR,,0.00,WeatherDisplay:10.37,2013-11-19 09:22:00,
2013-11-19 03:24:00,17.8,13.5,29.09,NNW,338,2.4,2.4,83,0.00,CLR,,0.00,WeatherDisplay:10.37,2013-11-19 09:24:00,
2013-11-19 03:25:00,17.8,13.5,29.09,NNW,338,2.6,2.6,83,0.00,CLR,,0.00,WeatherDisplay:10.37,2013-11-19 09:25:00,
2013-11-19 03:26:00,18.0,13.7,29.09,NNW,338,2.3,2.3,83,0.00,CLR,,0.00,WeatherDisplay:10.37,2013-11-19 09:26:00,
2013-11-19 03:27:00,18.0,13.7,29.09,NNW,338,2.3,2.3,83,0.00,CLR,,0.00,WeatherDisplay:10.37,2013-11-19 09:27:00,
2013-11-19 03:28:00,18.1,13.8,29.09,NNW,338,2.4,2.4,83,0.00,CLR,,0.00,WeatherDisplay:10.37,2013-11-19 09:28:00,
2013-11-19 03:29:00,18.1,13.8,29.09,NNW,338,2.3,2.3,83,0.00,CLR,,0.00,WeatherDisplay:10.37,2013-11-19 09:29:00,
2013-11-19 03:30:00,18.1,13.8,29.09,NNW,338,2.3,2.3,83,0.00,CLR,,0.00,WeatherDisplay:10.37,2013-11-19 09:30:00,
2013-11-19 03:31:00,18.1,14.1,29.09,NNW,338,2.3,2.3,84,0.00,CLR,,0.00,WeatherDisplay:10.37,2013-11-19 09:31:00,
2013-11-19 03:33:00,18.3,14.3,29.09,SSW,202,2.3,2.3,84,0.00,CLR,,0.00,WeatherDisplay:10.37,2013-11-19 09:33:00,
2013-11-19 03:35:00,18.3,14.3,29.09,SSW,202,2.3,2.3,84,0.00,CLR,,0.00,WeatherDisplay:10.37,2013-11-19 09:35:00,
2013-11-19 03:36:00,18.3,14.6,29.09,SSW,202,1.2,1.2,85,0.00,CLR,,0.00,WeatherDisplay:10.37,2013-11-19 09:36:00,
2013-11-19 03:37:00,18.5,14.7,29.09,SSW,202,1.2,0.0,85,0.00,CLR,,0.00,WeatherDisplay:10.37,2013-11-19 09:37:00,
2013-11-19 03:38:00,18.5,14.7,29.09,SSW,202,0.0,0.0,85,0.00,CLR,,0.00,WeatherDisplay:10.37,2013-11-19 09:38:00,
2013-11-19 03:39:00,18.5,14.7,29.09,SSW,202,0.0,0.0,85,0.00,CLR,,0.00,WeatherDisplay:10.37,2013-11-19 09:39:00,
2013-11-19 03:40:00,18.5,14.7,29.09,SSW,202,0.0,0.0,85,0.00,CLR,,0.00,WeatherDisplay:10.37,2013-11-19 09:40:00,
2013-11-19 03:41:00,18.7,14.9,29.09,South,180,2.0,0.0,85,0.00,CLR,,0.00,WeatherDisplay:10.37,2013-11-19 09:41:00,
2013-11-19 03:44:00,18.7,14.9,29.09,SW,225,1.2,0.0,85,0.00,CLR,,0.00,WeatherDisplay:10.37,2013-11-19 09:44:00,
2013-11-19 03:45:00,18.7,14.9,29.09,South,180,1.2,0.0,85,0.00,CLR,,0.00,WeatherDisplay:10.37,2013-11-19 09:45:00,
2013-11-19 03:46:00,18.7,15.2,29.09,South,180,1.2,0.0,86,0.00,CLR,,0.00,WeatherDisplay:10.37,2013-11-19 09:46:00,
2013-11-19 03:49:00,18.7,15.2,29.09,South,180,0.0,0.0,86,0.00,CLR,,0.00,WeatherDisplay:10.37,2013-11-19 09:49:00,
2013-11-19 03:50:00,18.5,15.0,29.09,South,180,0.0,0.0,86,0.00,CLR,,0.00,WeatherDisplay:10.37,2013-11-19 09:50:00,
2013-11-19 03:51:00,18.3,14.6,29.09,South,180,0.0,0.0,85,0.00,CLR,,0.00,WeatherDisplay:10.37,2013-11-19 09:51:00,
2013-11-19 03:54:00,18.1,14.4,29.09,South,180,0.0,0.0,85,0.00,CLR,,0.00,WeatherDisplay:10.37,2013-11-19 09:54:00,
2013-11-19 03:55:00,18.1,14.4,29.09,South,180,0.0,0.0,85,0.00,CLR,,0.00,WeatherDisplay:10.37,2013-11-19 09:55:00,
2013-11-19 03:56:00,18.3,14.6,29.09,South,180,0.0,0.0,85,0.00,CLR,,0.00,WeatherDisplay:10.37,2013-11-19 09:56:00,
2013-11-19 03:59:00,18.7,14.9,29.09,South,180,0.0,0.0,85,0.00,CLR,,0.00,WeatherDisplay:10.37,2013-11-19 09:59:00,
2013-11-19 04:00:00,18.7,14.9,29.09,South,180,0.0,0.0,85,0.00,CLR,,0.00,WeatherDisplay:10.37,2013-11-19 10:00:00,
2013-11-19 04:01:00,18.7,14.9,29.09,South,180,0.0,0.0,85,0.00,CLR,,0.00,WeatherDisplay:10.37,2013-11-19 10:01:00,
2013-11-19 04:02:00,18.7,14.9,29.09,South,180,0.0,0.0,85,0.00,CLR,,0.00,WeatherDisplay:10.37,2013-11-19 10:02:00,
2013-11-19 04:04:00,18.5,14.7,29.09,South,180,0.0,0.0,85,0.00,CLR,,0.00,WeatherDisplay:10.37,2013-11-19 10:04:00,
2013-11-19 04:05:00,18.5,14.7,29.09,WSW,248,0.0,0.0,85,0.00,CLR,,0.00,WeatherDisplay:10.37,2013-11-19 10:05:00,
2013-11-19 04:06:00,18.5,14.7,29.09,WSW,248,0.0,0.0,85,0.00,CLR,,0.00,WeatherDisplay:10.37,2013-11-19 10:06:00,
2013-11-19 04:07:00,18.5,14.7,29.09,WSW,248,0.0,0.0,85,0.00,CLR,,0.00,WeatherDisplay:10.37,2013-11-19 10:07:00,
2013-11-19 04:10:00,18.5,14.7,29.09,SW,222,0.0,0.0,85,0.00,CLR,,0.00,WeatherDisplay:10.37,2013-11-19 10:10:00,
2013-11-19 04:11:00,18.5,14.7,29.09,South,180,0.0,0.0,85,0.00,CLR,,0.00,WeatherDisplay:10.37,2013-11-19 10:11:00,
2013-11-19 04:12:00,18.5,14.7,29.09,South,180,0.0,0.0,85,0.00,CLR,,0.00,WeatherDisplay:10.37,2013-11-19 10:12:00,
2013-11-19 04:15:00,18.1,14.1,29.09,South,180,0.0,0.0,84,0.00,CLR,,0.00,WeatherDisplay:10.37,2013-11-19 10:15:00,
2013-11-19 04:16:00,18.1,14.1,29.09,South,180,0.0,0.0,84,0.00,CLR,,0.00,WeatherDisplay:10.37,2013-11-19 10:16:00,
2013-11-19 04:17:00,18.1,14.1,29.09,South,180,0.0,0.0,84,0.00,CLR,,0.00,WeatherDisplay:10.37,2013-11-19 10:17:00,
2013-11-19 04:18:00,18.1,14.1,29.09,South,180,0.0,0.0,84,0.00,CLR,,0.00,WeatherDisplay:10.37,2013-11-19 10:18:00,
2013-11-19 04:20:00,18.0,13.9,29.09,South,180,0.0,0.0,84,0.00,CLR,,0.00,WeatherDisplay:10.37,2013-11-19 10:20:00,
2013-11-19 04:21:00,18.0,13.9,29.09,South,180,0.0,0.0,84,0.00,CLR,,0.00,WeatherDisplay:10.37,2013-11-19 10:21:00,
2013-11-19 04:22:00,17.8,13.8,29.09,South,180,0.0,0.0,84,0.00,CLR,,0.00,WeatherDisplay:10.37,2013-11-19 10:22:00,
2013-11-19 04:23:00,17.8,13.8,29.09,South,180,0.0,0.0,84,0.00,CLR,,0.00,WeatherDisplay:10.37,2013-11-19 10:23:00,
2013-11-19 04:25:00,17.6,13.6,29.09,South,180,0.0,0.0,84,0.00,CLR,,0.00,WeatherDisplay:10.37,2013-11-19 10:25:00,
2013-11-19 04:26:00,17.6,13.6,29.09,South,180,0.0,0.0,84,0.00,CLR,,0.00,WeatherDisplay:10.37,2013-11-19 10:26:00,
2013-11-19 04:27:00,17.6,13.6,29.09,South,180,0.0,0.0,84,0.00,CLR,,0.00,WeatherDisplay:10.37,2013-11-19 10:27:00,
2013-11-19 04:28:00,17.6,13.6,29.09,South,180,0.0,0.0,84,0.00,CLR,,0.00,WeatherDisplay:10.37,2013-11-19 10:28:00,
2013-11-19 04:30:00,17.6,13.6,29.09,North,0,1.4,1.4,84,0.00,CLR,,0.00,WeatherDisplay:10.37,2013-11-19 10:30:00,
2013-11-19 04:31:00,17.6,13.6,29.09,North,0,2.3,2.3,84,0.00,CLR,,0.00,WeatherDisplay:10.37,2013-11-19 10:31:00,
2013-11-19 04:32:00,17.6,13.6,29.09,North,0,2.3,2.3,84,0.00,CLR,,0.00,WeatherDisplay:10.37,2013-11-19 10:32:00,
2013-11-19 04:33:00,17.4,13.4,29.09,North,0,2.3,2.3,84,0.00,CLR,,0.00,WeatherDisplay:10.37,2013-11-19 10:33:00,
2013-11-19 04:35:00,17.4,13.4,29.09,North,0,1.4,0.0,84,0.00,CLR,,0.00,WeatherDisplay:10.37,2013-11-19 10:35:00,
2013-11-19 04:36:00,17.4,13.4,29.09,North,0,1.6,1.6,84,0.00,CLR,,0.00,WeatherDisplay:10.37,2013-11-19 10:36:00,
2013-11-19 04:37:00,17.4,13.4,29.09,North,0,2.4,2.4,84,0.00,CLR,,0.00,WeatherDisplay:10.37,2013-11-19 10:37:00,
2013-11-19 04:38:00,17.6,13.6,29.09,North,0,2.3,2.3,84,0.00,CLR,,0.00,WeatherDisplay:10.37,2013-11-19 10:38:00,
2013-11-19 04:41:00,17.6,13.6,29.12,North,0,2.3,2.3,84,0.00,CLR,,0.00,WeatherDisplay:10.37,2013-11-19 10:41:00,
2013-11-19 04:42:00,17.6,13.6,29.12,North,0,1.4,1.4,84,0.00,CLR,,0.00,WeatherDisplay:10.37,2013-11-19 10:42:00,
2013-11-19 04:43:00,17.6,13.6,29.12,North,0,1.2,1.2,84,0.00,CLR,,0.00,WeatherDisplay:10.37,2013-11-19 10:43:00,
2013-11-19 04:46:00,17.4,13.4,29.12,North,0,0.0,0.0,84,0.00,CLR,,0.00,WeatherDisplay:10.37,2013-11-19 10:46:00,
2013-11-19 04:47:00,17.4,13.4,29.12,North,0,0.0,0.0,84,0.00,CLR,,0.00,WeatherDisplay:10.37,2013-11-19 10:47:00,
2013-11-19 04:48:00,17.4,13.4,29.12,North,0,0.0,0.0,84,0.00,CLR,,0.00,WeatherDisplay:10.37,2013-11-19 10:48:00,
2013-11-19 04:49:00,17.4,13.4,29.12,North,0,0.0,0.0,84,0.00,CLR,,0.00,WeatherDisplay:10.37,2013-11-19 10:49:00,
2013-11-19 04:52:00,17.2,13.2,29.12,North,0,0.0,0.0,84,0.00,CLR,,0.00,WeatherDisplay:10.37,2013-11-19 10:52:00,
2013-11-19 04:53:00,17.2,13.2,29.12,North,0,0.0,0.0,84,0.00,CLR,,0.00,WeatherDisplay:10.37,2013-11-19 10:53:00,
2013-11-19 04:54:00,17.2,13.2,29.12,North,0,0.0,0.0,84,0.00,CLR,,0.00,WeatherDisplay:10.37,2013-11-19 10:54:00,
2013-11-19 04:57:00,17.1,13.3,29.12,North,0,0.0,0.0,85,0.00,CLR,,0.00,WeatherDisplay:10.37,2013-11-19 10:57:00,
2013-11-19 04:58:00,17.1,13.1,29.12,North,0,0.0,0.0,84,0.00,CLR,,0.00,WeatherDisplay:10.37,2013-11-19 10:58:00,
2013-11-19 04:59:00,17.1,13.1,29.12,North,0,0.0,0.0,84,0.00,CLR,,0.00,WeatherDisplay:10.37,2013-11-19 10:59:00,
2013-11-19 05:00:00,17.1,13.1,29.12,North,0,0.0,0.0,84,0.00,CLR,,0.00,WeatherDisplay:10.37,2013-11-19 11:00:00,
2013-11-19 05:02:00,17.1,13.1,29.12,North,0,0.0,0.0,84,0.00,CLR,,0.00,WeatherDisplay:10.37,2013-11-19 11:02:00,
2013-11-19 05:03:00,17.1,13.3,29.12,North,0,0.0,0.0,85,0.00,CLR,,0.00,WeatherDisplay:10.37,2013-11-19 11:03:00,
2013-11-19 05:04:00,17.1,13.3,29.12,North,0,0.0,0.0,85,0.00,CLR,,0.00,WeatherDisplay:10.37,2013-11-19 11:04:00,
2013-11-19 05:05:00,17.1,13.3,29.12,North,0,0.0,0.0,85,0.00,CLR,,0.00,WeatherDisplay:10.37,2013-11-19 11:05:00,
2013-11-19 05:07:00,17.1,13.3,29.12,North,0,0.0,0.0,85,0.00,CLR,,0.00,WeatherDisplay:10.37,2013-11-19 11:07:00,
2013-11-19 05:08:00,17.1,13.3,29.12,North,0,0.0,0.0,85,0.00,CLR,,0.00,WeatherDisplay:10.37,2013-11-19 11:08:00,
2013-11-19 05:09:00,17.1,13.3,29.12,North,0,0.0,0.0,85,0.00,CLR,,0.00,WeatherDisplay:10.37,2013-11-19 11:09:00,
2013-11-19 05:10:00,17.1,13.3,29.12,North,0,0.0,0.0,85,0.00,CLR,,0.00,WeatherDisplay:10.37,2013-11-19 11:10:00,
2013-11-19 05:12:00,16.9,13.2,29.12,North,0,0.0,0.0,85,0.00,CLR,,0.00,WeatherDisplay:10.37,2013-11-19 11:12:00,
2013-11-19 05:14:00,16.9,13.2,29.12,North,0,0.0,0.0,85,0.00,CLR,,0.00,WeatherDisplay:10.37,2013-11-19 11:14:00,
2013-11-19 05:15:00,16.9,13.2,29.12,North,0,0.0,0.0,85,0.00,CLR,,0.00,WeatherDisplay:10.37,2013-11-19 11:15:00,
2013-11-19 05:16:00,16.7,13.0,29.12,North,0,0.0,0.0,85,0.00,CLR,,0.00,WeatherDisplay:10.37,2013-11-19 11:16:00,
2013-11-19 05:18:00,16.7,13.0,29.12,North,0,0.0,0.0,85,0.00,CLR,,0.00,WeatherDisplay:10.37,2013-11-19 11:18:00,
2013-11-19 05:19:00,16.7,13.0,29.12,North,0,0.0,0.0,85,0.00,CLR,,0.00,WeatherDisplay:10.37,2013-11-19 11:19:00,
2013-11-19 05:20:00,16.7,13.0,29.12,North,0,0.0,0.0,85,0.00,CLR,,0.00,WeatherDisplay:10.37,2013-11-19 11:20:00,
2013-11-19 05:22:00,16.9,13.2,29.12,North,0,0.0,0.0,85,0.00,CLR,,0.00,WeatherDisplay:10.37,2013-11-19 11:22:00,
2013-11-19 05:23:00,16.9,13.2,29.12,North,0,0.0,0.0,85,0.00,CLR,,0.00,WeatherDisplay:10.37,2013-11-19 11:23:00,
2013-11-19 05:24:00,16.9,13.2,29.12,North,0,0.0,0.0,85,0.00,CLR,,0.00,WeatherDisplay:10.37,2013-11-19 11:24:00,
2013-11-19 05:25:00,16.9,13.2,29.12,North,0,0.0,0.0,85,0.00,CLR,,0.00,WeatherDisplay:10.37,2013-11-19 11:25:00,
2013-11-19 05:27:00,16.9,13.2,29.12,North,0,0.0,0.0,85,0.00,CLR,,0.00,WeatherDisplay:10.37,2013-11-19 11:27:00,
2013-11-19 05:28:00,16.9,13.2,29.12,North,0,0.0,0.0,85,0.00,CLR,,0.00,WeatherDisplay:10.37,2013-11-19 11:28:00,
2013-11-19 05:30:00,16.7,13.0,29.12,North,0,0.0,0.0,85,0.00,CLR,,0.00,WeatherDisplay:10.37,2013-11-19 11:30:00,
2013-11-19 05:32:00,16.9,13.2,29.12,North,0,0.0,0.0,85,0.00,CLR,,0.00,WeatherDisplay:10.37,2013-11-19 11:32:00,
2013-11-19 05:34:00,16.9,13.2,29.12,North,0,0.0,0.0,85,0.00,CLR,,0.00,WeatherDisplay:10.37,2013-11-19 11:34:00,
2013-11-19 05:35:00,16.9,13.2,29.12,North,0,0.0,0.0,85,0.00,CLR,,0.00,WeatherDisplay:10.37,2013-11-19 11:35:00,
2013-11-19 05:36:00,16.9,13.2,29.12,North,0,0.0,0.0,85,0.00,CLR,,0.00,WeatherDisplay:10.37,2013-11-19 11:36:00,
2013-11-19 05:37:00,17.1,13.6,29.12,NE,45,0.0,0.0,86,0.00,CLR,,0.00,WeatherDisplay:10.37,2013-11-19 11:37:00,
2013-11-19 05:39:00,17.1,13.9,29.12,NE,45,0.0,0.0,87,0.00,CLR,,0.00,WeatherDisplay:10.37,2013-11-19 11:39:00,
2013-11-19 05:40:00,17.1,13.9,29.12,NE,45,0.0,0.0,87,0.00,CLR,,0.00,WeatherDisplay:10.37,2013-11-19 11:40:00,
2013-11-19 05:41:00,17.1,13.9,29.12,NE,45,0.0,0.0,87,0.00,CLR,,0.00,WeatherDisplay:10.37,2013-11-19 11:41:00,
2013-11-19 05:43:00,17.1,13.9,29.12,NE,45,0.0,0.0,87,0.00,CLR,,0.00,WeatherDisplay:10.37,2013-11-19 11:43:00,
2013-11-19 05:44:00,17.1,13.9,29.12,NE,45,0.0,0.0,87,0.00,CLR,,0.00,WeatherDisplay:10.37,2013-11-19 11:44:00,
2013-11-19 05:45:00,17.1,13.6,29.12,SE,135,0.0,0.0,86,0.00,CLR,,0.00,WeatherDisplay:10.37,2013-11-19 11:45:00,
2013-11-19 05:46:00,17.1,13.6,29.12,SE,135,0.0,0.0,86,0.00,CLR,,0.00,WeatherDisplay:10.37,2013-11-19 11:46:00,
2013-11-19 05:48:00,17.1,13.6,29.12,SE,135,1.4,1.4,86,0.00,CLR,,0.00,WeatherDisplay:10.37,2013-11-19 11:48:00,
2013-11-19 05:49:00,17.1,13.6,29.12,SE,135,2.3,2.3,86,0.00,CLR,,0.00,WeatherDisplay:10.37,2013-11-19 11:49:00,
2013-11-19 05:50:00,17.1,13.3,29.12,SE,135,2.3,2.3,85,0.00,CLR,,0.00,WeatherDisplay:10.37,2013-11-19 11:50:00,
2013-11-19 05:51:00,16.9,13.2,29.12,SE,135,1.2,1.2,85,0.00,CLR,,0.00,WeatherDisplay:10.37,2013-11-19 11:51:00,
2013-11-19 05:52:00,16.9,13.2,29.12,SE,135,1.2,0.0,85,0.00,CLR,,0.00,WeatherDisplay:10.37,2013-11-19 11:52:00,
2013-11-19 05:53:00,16.9,13.2,29.12,SE,135,0.0,0.0,85,0.00,CLR,,0.00,WeatherDisplay:10.37,2013-11-19 11:53:00,
2013-11-19 05:54:00,16.9,13.2,29.12,SE,135,0.0,0.0,85,0.00,CLR,,0.00,WeatherDisplay:10.37,2013-11-19 11:54:00,
2013-11-19 05:56:00,16.9,13.2,29.12,South,180,0.0,0.0,85,0.00,CLR,,0.00,WeatherDisplay:10.37,2013-11-19 11:56:00,
2013-11-19 05:57:00,16.9,13.2,29.12,South,180,0.0,0.0,85,0.00,CLR,,0.00,WeatherDisplay:10.37,2013-11-19 11:57:00,
2013-11-19 05:58:00,16.9,13.2,29.12,South,180,0.0,0.0,85,0.00,CLR,,0.00,WeatherDisplay:10.37,2013-11-19 11:58:00,
2013-11-19 05:59:00,17.1,13.3,29.12,South,180,0.0,0.0,85,0.00,CLR,,0.00,WeatherDisplay:10.37,2013-11-19 11:59:00,
2013-11-19 06:01:00,17.1,13.3,29.12,South,180,0.0,0.0,85,0.00,CLR,,0.00,WeatherDisplay:10.37,2013-11-19 12:01:00,
2013-11-19 06:02:00,17.1,13.3,29.12,South,180,0.0,0.0,85,0.00,CLR,,0.00,WeatherDisplay:10.37,2013-11-19 12:02:00,
2013-11-19 06:03:00,17.1,13.3,29.12,South,180,0.0,0.0,85,0.00,CLR,,0.00,WeatherDisplay:10.37,2013-11-19 12:03:00,
2013-11-19 06:05:00,17.1,13.3,29.12,South,180,0.0,0.0,85,0.00,CLR,,0.00,WeatherDisplay:10.37,2013-11-19 12:05:00,
2013-11-19 06:06:00,17.1,13.3,29.12,South,180,0.0,0.0,85,0.00,CLR,,0.00,WeatherDisplay:10.37,2013-11-19 12:06:00,
2013-11-19 06:07:00,17.1,13.3,29.12,South,180,0.0,0.0,85,0.00,CLR,,0.00,WeatherDisplay:10.37,2013-11-19 12:07:00,
2013-11-19 06:08:00,17.1,13.3,29.12,South,180,0.0,0.0,85,0.00,CLR,,0.00,WeatherDisplay:10.37,2013-11-19 12:08:00,
2013-11-19 06:09:00,17.1,13.3,29.12,South,180,0.0,0.0,85,0.00,CLR,,0.00,WeatherDisplay:10.37,2013-11-19 12:09:00,
2013-11-19 06:10:00,17.1,13.3,29.12,South,180,0.0,0.0,85,0.00,CLR,,0.00,WeatherDisplay:10.37,2013-11-19 12:10:00,
2013-11-19 06:12:00,17.1,13.3,29.12,South,180,0.0,0.0,85,0.00,CLR,,0.00,WeatherDisplay:10.37,2013-11-19 12:12:00,
2013-11-19 06:13:00,17.1,13.3,29.12,South,180,0.0,0.0,85,0.00,CLR,,0.00,WeatherDisplay:10.37,2013-11-19 12:13:00,
2013-11-19 06:14:00,17.1,13.3,29.12,South,180,0.0,0.0,85,0.00,CLR,,0.00,WeatherDisplay:10.37,2013-11-19 12:14:00,
2013-11-19 06:15:00,17.1,13.3,29.12,South,180,0.0,0.0,85,0.00,CLR,,0.00,WeatherDisplay:10.37,2013-11-19 12:15:00,
2013-11-19 06:17:00,17.1,13.3,29.12,South,180,0.0,0.0,85,0.00,CLR,,0.00,WeatherDisplay:10.37,2013-11-19 12:17:00,
2013-11-19 06:18:00,17.1,13.3,29.12,South,180,0.0,0.0,85,0.00,CLR,,0.00,WeatherDisplay:10.37,2013-11-19 12:18:00,
2013-11-19 06:19:00,17.1,13.3,29.12,South,180,0.0,0.0,85,0.00,CLR,,0.00,WeatherDisplay:10.37,2013-11-19 12:19:00,
2013-11-19 06:20:00,17.1,13.3,29.12,South,180,0.0,0.0,85,0.00,CLR,,0.00,WeatherDisplay:10.37,2013-11-19 12:20:00,
2013-11-19 06:22:00,16.9,13.2,29.12,South,180,0.0,0.0,85,0.00,CLR,,0.00,WeatherDisplay:10.37,2013-11-19 12:22:00,
2013-11-19 06:23:00,17.1,13.3,29.12,South,180,0.0,0.0,85,0.00,CLR,,0.00,WeatherDisplay:10.37,2013-11-19 12:23:00,
2013-11-19 06:24:00,16.9,13.2,29.12,South,180,0.0,0.0,85,0.00,CLR,,0.00,WeatherDisplay:10.37,2013-11-19 12:24:00,
2013-11-19 06:25:00,16.9,13.2,29.12,South,180,0.0,0.0,85,0.00,CLR,,0.00,WeatherDisplay:10.37,2013-11-19 12:25:00,
2013-11-19 06:27:00,16.7,13.0,29.12,South,180,0.0,0.0,85,0.00,CLR,,0.00,WeatherDisplay:10.37,2013-11-19 12:27:00,
2013-11-19 06:28:00,16.7,13.0,29.12,South,180,0.0,0.0,85,0.00,CLR,,0.00,WeatherDisplay:10.37,2013-11-19 12:28:00,
2013-11-19 06:29:00,16.7,12.7,29.12,South,180,0.0,0.0,84,0.00,CLR,,0.00,WeatherDisplay:10.37,2013-11-19 12:29:00,
2013-11-19 06:30:00,16.7,12.7,29.12,South,180,0.0,0.0,84,0.00,CLR,,0.00,WeatherDisplay:10.37,2013-11-19 12:30:00,
2013-11-19 06:33:00,16.5,12.5,29.12,South,180,0.0,0.0,84,0.00,CLR,,0.00,WeatherDisplay:10.37,2013-11-19 12:33:00,
2013-11-19 06:34:00,16.5,12.5,29.12,South,180,0.0,0.0,84,0.00,CLR,,0.00,WeatherDisplay:10.37,2013-11-19 12:34:00,
2013-11-19 06:35:00,16.5,12.5,29.12,South,180,0.0,0.0,84,0.00,CLR,,0.00,WeatherDisplay:10.37,2013-11-19 12:35:00,
2013-11-19 06:36:00,16.3,12.4,29.12,South,180,0.0,0.0,84,0.00,CLR,,0.00,WeatherDisplay:10.37,2013-11-19 12:36:00,
2013-11-19 06:38:00,16.3,12.4,29.12,South,180,0.0,0.0,84,0.00,CLR,,0.00,WeatherDisplay:10.37,2013-11-19 12:38:00,
2013-11-19 06:40:00,16.2,12.2,29.12,South,180,0.0,0.0,84,0.00,CLR,,0.00,WeatherDisplay:10.37,2013-11-19 12:40:00,
2013-11-19 06:41:00,16.2,12.2,29.12,South,180,0.0,0.0,84,0.00,CLR,,0.00,WeatherDisplay:10.37,2013-11-19 12:41:00,
2013-11-19 06:43:00,16.2,12.2,29.12,South,180,0.0,0.0,84,0.00,CLR,,0.00,WeatherDisplay:10.37,2013-11-19 12:43:00,
2013-11-19 06:45:00,16.2,12.2,29.12,South,180,0.0,0.0,84,0.00,CLR,,0.00,WeatherDisplay:10.37,2013-11-19 12:45:00,
2013-11-19 06:46:00,16.2,12.2,29.12,South,180,0.0,0.0,84,0.00,CLR,,0.00,WeatherDisplay:10.37,2013-11-19 12:46:00,
2013-11-19 06:48:00,16.2,12.4,29.12,South,180,0.0,0.0,85,0.00,CLR,,0.00,WeatherDisplay:10.37,2013-11-19 12:48:00,
2013-11-19 06:50:00,16.2,12.4,29.12,South,180,0.0,0.0,85,0.00,CLR,,0.00,WeatherDisplay:10.37,2013-11-19 12:50:00,
2013-11-19 06:51:00,16.2,12.4,29.12,South,180,0.0,0.0,85,0.00,CLR,,0.00,WeatherDisplay:10.37,2013-11-19 12:51:00,
2013-11-19 06:53:00,16.2,12.4,29.12,South,180,0.0,0.0,85,0.00,CLR,,0.00,WeatherDisplay:10.37,2013-11-19 12:53:00,
2013-11-19 06:54:00,16.2,12.4,29.12,South,180,0.0,0.0,85,0.00,CLR,,0.00,WeatherDisplay:10.37,2013-11-19 12:54:00,
2013-11-19 06:56:00,16.2,12.4,29.15,South,180,0.0,0.0,85,0.00,CLR,,0.00,WeatherDisplay:10.37,2013-11-19 12:56:00,
2013-11-19 06:57:00,16.2,12.4,29.15,South,180,0.0,0.0,85,0.00,CLR,,0.00,WeatherDisplay:10.37,2013-11-19 12:57:00,
2013-11-19 06:58:00,16.2,12.4,29.15,South,180,0.0,0.0,85,0.00,CLR,,0.00,WeatherDisplay:10.37,2013-11-19 12:58:00,
2013-11-19 06:59:00,16.5,12.8,29.15,South,180,0.0,0.0,85,0.00,CLR,,0.00,WeatherDisplay:10.37,2013-11-19 12:59:00,
2013-11-19 07:01:00,16.5,12.8,29.15,South,180,0.0,0.0,85,0.00,CLR,,0.00,WeatherDisplay:10.37,2013-11-19 13:01:00,
2013-11-19 07:02:00,16.3,12.6,29.15,South,180,0.0,0.0,85,0.00,CLR,,0.00,WeatherDisplay:10.37,2013-11-19 13:02:00,
2013-11-19 07:03:00,16.3,12.6,29.15,South,180,0.0,0.0,85,0.00,CLR,,0.00,WeatherDisplay:10.37,2013-11-19 13:03:00,
2013-11-19 07:05:00,16.3,12.9,29.15,South,180,0.0,0.0,86,0.00,CLR,,0.00,WeatherDisplay:10.37,2013-11-19 13:05:00,
2013-11-19 07:06:00,16.5,13.1,29.15,South,180,0.0,0.0,86,0.00,CLR,,0.00,WeatherDisplay:10.37,2013-11-19 13:06:00,
2013-11-19 07:07:00,16.5,13.1,29.15,South,180,0.0,0.0,86,0.00,CLR,,0.00,WeatherDisplay:10.37,2013-11-19 13:07:00,
2013-11-19 07:08:00,16.7,13.2,29.15,South,180,0.0,0.0,86,0.00,CLR,,0.00,WeatherDisplay:10.37,2013-11-19 13:08:00,
2013-11-19 07:10:00,16.7,13.2,29.15,South,180,0.0,0.0,86,0.00,CLR,,0.00,WeatherDisplay:10.37,2013-11-19 13:10:00,
2013-11-19 07:11:00,16.7,13.2,29.15,South,180,0.0,0.0,86,0.00,CLR,,0.00,WeatherDisplay:10.37,2013-11-19 13:11:00,
2013-11-19 07:12:00,16.7,13.2,29.15,South,180,0.0,0.0,86,0.00,CLR,,0.00,WeatherDisplay:10.37,2013-11-19 13:12:00,
2013-11-19 07:14:00,16.9,13.2,29.15,South,180,1.4,0.0,85,0.00,CLR,,0.00,WeatherDisplay:10.37,2013-11-19 13:14:00,
2013-11-19 07:15:00,16.9,13.2,29.15,South,180,1.2,1.2,85,0.00,CLR,,0.00,WeatherDisplay:10.37,2013-11-19 13:15:00,
2013-11-19 07:16:00,16.9,13.2,29.15,South,180,1.4,1.4,85,0.00,CLR,,0.00,WeatherDisplay:10.37,2013-11-19 13:16:00,
2013-11-19 07:17:00,16.9,13.2,29.15,South,180,1.6,1.6,85,0.00,CLR,,0.00,WeatherDisplay:10.37,2013-11-19 13:17:00,
2013-11-19 07:18:00,17.1,13.3,29.15,ENE,68,2.3,2.3,85,0.00,CLR,,0.00,WeatherDisplay:10.37,2013-11-19 13:18:00,
2013-11-19 07:19:00,17.1,13.3,29.15,ENE,68,2.3,2.3,85,0.00,CLR,,0.00,WeatherDisplay:10.37,2013-11-19 13:19:00,
2013-11-19 07:20:00,17.1,13.3,29.15,ENE,68,1.2,1.4,85,0.00,CLR,,0.00,WeatherDisplay:10.37,2013-11-19 13:20:00,
2013-11-19 07:21:00,17.6,13.9,29.15,ENE,68,1.4,0.0,85,0.00,CLR,,0.00,WeatherDisplay:10.37,2013-11-19 13:21:00,
2013-11-19 07:22:00,17.6,14.1,29.15,ENE,68,2.3,0.0,86,0.00,CLR,,0.00,WeatherDisplay:10.37,2013-11-19 13:22:00,
2013-11-19 07:24:00,17.8,14.0,29.15,ENE,68,1.4,1.4,85,0.00,CLR,,0.00,WeatherDisplay:10.37,2013-11-19 13:24:00,
2013-11-19 07:25:00,18.1,14.4,29.15,ENE,68,1.2,0.0,85,0.00,CLR,,0.00,WeatherDisplay:10.37,2013-11-19 13:25:00,
2013-11-19 07:27:00,18.3,14.8,29.15,ENE,68,0.0,0.0,86,0.00,CLR,,0.00,WeatherDisplay:10.37,2013-11-19 13:27:00,
2013-11-19 07:28:00,18.5,15.0,29.15,ENE,68,0.0,0.0,86,0.00,CLR,,0.00,WeatherDisplay:10.37,2013-11-19 13:28:00,
2013-11-19 07:29:00,18.9,15.4,29.15,ENE,68,0.0,0.0,86,0.00,CLR,,0.00,WeatherDisplay:10.37,2013-11-19 13:29:00,
2013-11-19 07:30:00,19.6,16.1,29.15,ENE,68,0.0,0.0,86,0.00,CLR,,0.00,WeatherDisplay:10.37,2013-11-19 13:30:00,
2013-11-19 07:32:00,19.9,16.4,29.15,ENE,68,0.0,0.0,86,0.00,CLR,,0.00,WeatherDisplay:10.37,2013-11-19 13:32:00,
2013-11-19 07:33:00,20.3,16.8,29.15,ENE,68,0.0,0.0,86,0.00,CLR,,0.00,WeatherDisplay:10.37,2013-11-19 13:33:00,
2013-11-19 07:34:00,20.3,17.0,29.15,ENE,68,0.0,0.0,87,0.00,CLR,,0.00,WeatherDisplay:10.37,2013-11-19 13:34:00,
2013-11-19 07:35:00,20.3,17.0,29.15,ENE,68,0.0,0.0,87,0.00,CLR,,0.00,WeatherDisplay:10.37,2013-11-19 13:35:00,
2013-11-19 07:37:00,20.5,17.2,29.15,South,180,0.0,0.0,87,0.00,CLR,,0.00,WeatherDisplay:10.37,2013-11-19 13:37:00,
2013-11-19 07:39:00,21.0,17.8,29.15,South,180,0.0,0.0,87,0.00,CLR,,0.00,WeatherDisplay:10.37,2013-11-19 13:39:00,
2013-11-19 07:40:00,21.0,17.8,29.12,South,180,0.0,0.0,87,0.00,CLR,,0.00,WeatherDisplay:10.37,2013-11-19 13:40:00,
2013-11-19 07:41:00,21.2,17.9,29.12,South,180,0.0,0.0,87,0.00,CLR,,0.00,WeatherDisplay:10.37,2013-11-19 13:41:00,
2013-11-19 07:42:00,21.7,18.2,29.12,South,180,1.2,0.0,86,0.00,CLR,,0.00,WeatherDisplay:10.37,2013-11-19 13:42:00,
2013-11-19 07:44:00,21.9,18.4,29.12,South,180,0.0,0.0,86,0.00,CLR,,0.00,WeatherDisplay:10.37,2013-11-19 13:44:00,
2013-11-19 07:45:00,22.1,18.8,29.12,South,180,0.0,0.0,87,0.00,CLR,,0.00,WeatherDisplay:10.37,2013-11-19 13:45:00,
2013-11-19 07:46:00,22.6,19.4,29.12,South,180,0.0,0.0,87,0.00,CLR,,0.00,WeatherDisplay:10.37,2013-11-19 13:46:00,
2013-11-19 07:48:00,23.4,19.8,29.12,South,180,0.0,0.0,86,0.00,CLR,,0.00,WeatherDisplay:10.37,2013-11-19 13:48:00,
2013-11-19 07:49:00,23.5,20.0,29.12,South,180,0.0,0.0,86,0.00,CLR,,0.00,WeatherDisplay:10.37,2013-11-19 13:49:00,
2013-11-19 07:50:00,23.5,20.0,29.12,South,180,0.0,0.0,86,0.00,CLR,,0.00,WeatherDisplay:10.37,2013-11-19 13:50:00,
2013-11-19 07:51:00,23.7,20.1,29.12,South,180,0.0,0.0,86,0.00,CLR,,0.00,WeatherDisplay:10.37,2013-11-19 13:51:00,
2013-11-19 07:52:00,24.3,20.7,29.12,South,180,0.0,0.0,86,0.00,CLR,,0.00,WeatherDisplay:10.37,2013-11-19 13:52:00,
2013-11-19 07:53:00,24.3,20.7,29.12,South,180,0.0,0.0,86,0.00,CLR,,0.00,WeatherDisplay:10.37,2013-11-19 13:53:00,
2013-11-19 07:54:00,25.0,21.4,29.12,South,180,1.4,0.0,86,0.00,CLR,,0.00,WeatherDisplay:10.37,2013-11-19 13:54:00,
2013-11-19 07:55:00,25.3,22.0,29.12,South,180,1.4,1.4,87,0.00,CLR,,0.00,WeatherDisplay:10.37,2013-11-19 13:55:00,
2013-11-19 07:56:00,25.7,22.4,29.12,South,180,1.2,1.4,87,0.00,CLR,,0.00,WeatherDisplay:10.37,2013-11-19 13:56:00,
2013-11-19 07:58:00,25.9,22.5,29.12,South,180,0.0,0.0,87,0.00,CLR,,0.00,WeatherDisplay:10.37,2013-11-19 13:58:00,
2013-11-19 07:59:00,25.7,22.1,29.12,South,180,2.3,2.3,86,0.00,CLR,,0.00,WeatherDisplay:10.37,2013-11-19 13:59:00,
2013-11-19 08:01:00,25.5,21.9,29.12,South,180,2.3,2.3,86,0.00,CLR,,0.00,WeatherDisplay:10.37,2013-11-19 14:01:00,
2013-11-19 08:03:00,26.2,22.6,29.12,East,90,2.2,0.0,86,0.00,CLR,,0.00,WeatherDisplay:10.37,2013-11-19 14:03:00,
2013-11-19 08:04:00,26.2,22.3,29.12,ESE,112,2.3,2.3,85,0.00,CLR,,0.00,WeatherDisplay:10.37,2013-11-19 14:04:00,
2013-11-19 08:06:00,26.2,22.3,29.12,ESE,112,2.3,2.3,85,0.00,CLR,,0.00,WeatherDisplay:10.37,2013-11-19 14:06:00,
2013-11-19 08:08:00,27.0,22.5,29.12,ESE,112,0.0,0.0,83,0.00,CLR,,0.00,WeatherDisplay:10.37,2013-11-19 14:08:00,
2013-11-19 08:10:00,27.3,22.5,29.12,ESE,112,0.0,0.0,82,0.00,CLR,,0.00,WeatherDisplay:10.37,2013-11-19 14:10:00,
2013-11-19 08:11:00,27.9,23.1,29.12,ESE,112,0.0,0.0,82,0.00,CLR,,0.00,WeatherDisplay:10.37,2013-11-19 14:11:00,
2013-11-19 08:12:00,28.0,23.3,29.12,ESE,112,1.6,0.0,82,0.00,CLR,,0.00,WeatherDisplay:10.37,2013-11-19 14:12:00,
2013-11-19 08:13:00,27.9,22.8,29.12,East,90,2.4,2.4,81,0.00,CLR,,0.00,WeatherDisplay:10.37,2013-11-19 14:13:00,
2013-11-19 08:16:00,27.3,21.7,29.12,ESE,112,2.9,2.9,79,0.00,CLR,,0.00,WeatherDisplay:10.37,2013-11-19 14:16:00,
2013-11-19 08:17:00,27.1,21.5,29.12,ESE,112,2.3,2.3,79,0.00,CLR,,0.00,WeatherDisplay:10.37,2013-11-19 14:17:00,
2013-11-19 08:18:00,27.5,21.8,29.12,SSW,202,1.6,1.6,79,0.00,CLR,,0.00,WeatherDisplay:10.37,2013-11-19 14:18:00,
2013-11-19 08:19:00,27.5,22.1,29.12,SSW,202,1.2,1.2,80,0.00,CLR,,0.00,WeatherDisplay:10.37,2013-11-19 14:19:00,
2013-11-19 08:21:00,27.7,22.3,29.12,ESE,112,2.3,2.3,80,0.00,CLR,,0.00,WeatherDisplay:10.37,2013-11-19 14:21:00,
2013-11-19 08:22:00,27.7,22.3,29.12,ESE,112,2.4,2.4,80,0.00,CLR,,0.00,WeatherDisplay:10.37,2013-11-19 14:22:00,
2013-11-19 08:24:00,28.4,22.7,29.12,SE,135,2.3,2.3,79,0.00,CLR,,0.00,WeatherDisplay:10.37,2013-11-19 14:24:00,
2013-11-19 08:26:00,29.5,23.8,29.12,South,180,0.0,0.0,79,0.00,CLR,,0.00,WeatherDisplay:10.37,2013-11-19 14:26:00,
2013-11-19 08:27:00,29.3,23.6,29.12,South,180,2.6,0.0,79,0.00,CLR,,0.00,WeatherDisplay:10.37,2013-11-19 14:27:00,
2013-11-19 08:28:00,29.3,23.6,29.12,South,180,1.4,1.4,79,0.00,CLR,,0.00,WeatherDisplay:10.37,2013-11-19 14:28:00,
2013-11-19 08:29:00,29.1,23.4,29.12,South,180,2.0,2.0,79,0.00,CLR,,0.00,WeatherDisplay:10.37,2013-11-19 14:29:00,
2013-11-19 08:30:00,29.3,23.6,29.12,SSE,158,1.6,1.6,79,0.00,CLR,,0.00,WeatherDisplay:10.37,2013-11-19 14:30:00,
2013-11-19 08:32:00,29.7,23.9,29.12,SSE,158,1.2,0.0,79,0.00,CLR,,0.00,WeatherDisplay:10.37,2013-11-19 14:32:00,
2013-11-19 08:33:00,30.0,23.7,29.12,ESE,112,2.3,0.0,77,0.00,CLR,,0.00,WeatherDisplay:10.37,2013-11-19 14:33:00,
2013-11-19 08:34:00,30.0,24.0,29.12,ESE,112,2.3,2.3,78,0.00,CLR,,0.00,WeatherDisplay:10.37,2013-11-19 14:34:00,
2013-11-19 08:35:00,30.2,23.9,29.12,ESE,112,2.3,2.3,77,0.00,CLR,,0.00,WeatherDisplay:10.37,2013-11-19 14:35:00,
2013-11-19 08:37:00,30.4,23.7,29.12,ESE,112,2.3,2.3,76,0.00,CLR,,0.00,WeatherDisplay:10.37,2013-11-19 14:37:00,
2013-11-19 08:38:00,30.4,23.7,29.12,SSE,158,3.5,3.5,76,0.00,CLR,,0.00,WeatherDisplay:10.37,2013-11-19 14:38:00,
2013-11-19 08:39:00,30.4,23.7,29.12,East,90,3.5,3.5,76,0.00,CLR,,0.00,WeatherDisplay:10.37,2013-11-19 14:39:00,
2013-11-19 08:40:00,30.4,23.7,29.12,East,90,3.5,3.5,76,0.00,CLR,,0.00,WeatherDisplay:10.37,2013-11-19 14:40:00,
2013-11-19 08:42:00,30.9,23.6,29.12,East,90,3.5,3.5,74,0.00,CLR,,0.00,WeatherDisplay:10.37,2013-11-19 14:42:00,
2013-11-19 08:43:00,30.9,23.6,29.12,ESE,112,3.5,3.5,74,0.00,CLR,,0.00,WeatherDisplay:10.37,2013-11-19 14:43:00,
2013-11-19 08:44:00,30.9,23.3,29.12,ESE,112,2.3,2.3,73,0.00,CLR,,0.00,WeatherDisplay:10.37,2013-11-19 14:44:00,
2013-11-19 08:45:00,30.9,23.3,29.12,ESE,112,2.0,3.0,73,0.00,CLR,,0.00,WeatherDisplay:10.37,2013-11-19 14:45:00,
2013-11-19 08:46:00,31.1,22.8,29.12,ESE,112,3.5,3.5,71,0.00,CLR,,0.00,WeatherDisplay:10.37,2013-11-19 14:46:00,
2013-11-19 08:47:00,31.1,22.8,29.12,SSE,158,3.5,3.5,71,0.00,CLR,,0.00,WeatherDisplay:10.37,2013-11-19 14:47:00,
2013-11-19 08:48:00,31.3,23.0,29.12,SE,135,2.3,2.4,71,0.00,CLR,,0.00,WeatherDisplay:10.37,2013-11-19 14:48:00,
2013-11-19 08:49:00,30.9,22.6,29.12,SE,135,3.1,3.1,71,0.00,CLR,,0.00,WeatherDisplay:10.37,2013-11-19 14:49:00,
2013-11-19 08:50:00,30.9,22.6,29.12,SE,135,3.5,3.5,71,0.00,CLR,,0.00,WeatherDisplay:10.37,2013-11-19 14:50:00,
2013-11-19 08:51:00,31.1,22.8,29.12,SSE,158,3.3,3.3,71,0.00,CLR,,0.00,WeatherDisplay:10.37,2013-11-19 14:51:00,
2013-11-19 08:52:00,30.9,22.3,29.12,ESE,112,3.5,3.5,70,0.00,CLR,,0.00,WeatherDisplay:10.37,2013-11-19 14:52:00,
2013-11-19 08:53:00,31.1,22.5,29.12,ESE,112,4.9,4.9,70,0.00,CLR,,0.00,WeatherDisplay:10.37,2013-11-19 14:53:00,
2013-11-19 08:54:00,30.9,21.9,29.12,SSW,202,4.6,4.6,69,0.00,CLR,,0.00,WeatherDisplay:10.37,2013-11-19 14:54:00,
2013-11-19 08:55:00,30.9,21.9,29.12,SSE,158,3.5,3.5,69,0.00,CLR,,0.00,WeatherDisplay:10.37,2013-11-19 14:55:00,
2013-11-19 08:57:00,31.3,21.9,29.12,ESE,112,3.6,3.6,68,0.00,CLR,,0.00,WeatherDisplay:10.37,2013-11-19 14:57:00,
2013-11-19 08:58:00,31.3,21.9,29.12,ESE,112,3.5,3.5,68,0.00,CLR,,0.00,WeatherDisplay:10.37,2013-11-19 14:58:00,
2013-11-19 08:59:00,31.3,21.9,29.12,East,90,4.6,4.6,68,0.00,CLR,,0.00,WeatherDisplay:10.37,2013-11-19 14:59:00,
2013-11-19 09:00:00,31.3,21.9,29.12,SSE,158,4.6,4.6,68,0.00,CLR,,0.00,WeatherDisplay:10.37,2013-11-19 15:00:00,
2013-11-19 09:01:00,31.5,21.8,29.12,SE,135,4.0,4.0,67,0.00,CLR,,0.00,WeatherDisplay:10.37,2013-11-19 15:01:00,
2013-11-19 09:03:00,31.6,21.9,29.12,SE,135,4.6,4.6,67,0.00,CLR,,0.00,WeatherDisplay:10.37,2013-11-19 15:03:00,
2013-11-19 09:05:00,31.8,22.1,29.12,ESE,112,4.6,4.6,67,0.00,CLR,,0.00,WeatherDisplay:10.37,2013-11-19 15:05:00,
2013-11-19 09:06:00,32.4,22.3,29.12,SE,135,4.0,4.0,66,0.00,CLR,,0.00,WeatherDisplay:10.37,2013-11-19 15:06:00,
2013-11-19 09:08:00,32.4,22.3,29.12,SSE,158,3.8,3.8,66,0.00,CLR,,0.00,WeatherDisplay:10.37,2013-11-19 15:08:00,
2013-11-19 09:09:00,32.4,22.3,29.12,SSE,158,5.8,5.8,66,0.00,CLR,,0.00,WeatherDisplay:10.37,2013-11-19 15:09:00,
2013-11-19 09:10:00,32.2,21.0,29.15,East,90,5.8,5.8,63,0.00,CLR,,0.00,WeatherDisplay:10.37,2013-11-19 15:10:00,
2013-11-19 09:12:00,31.8,20.3,29.15,SE,135,5.9,5.9,62,0.00,CLR,,0.00,WeatherDisplay:10.37,2013-11-19 15:12:00,
2013-11-19 09:13:00,31.6,20.1,29.15,SE,135,5.8,5.8,62,0.00,CLR,,0.00,WeatherDisplay:10.37,2013-11-19 15:13:00,
2013-11-19 09:14:00,31.5,19.9,29.15,SE,135,5.8,5.8,62,0.00,CLR,,0.00,WeatherDisplay:10.37,2013-11-19 15:14:00,
2013-11-19 09:15:00,31.6,20.5,29.15,SSW,202,4.6,4.6,63,0.00,CLR,,0.00,WeatherDisplay:10.37,2013-11-19 15:15:00,
2013-11-19 09:18:00,32.5,21.7,29.15,SE,135,5.8,5.8,64,0.00,CLR,,0.00,WeatherDisplay:10.37,2013-11-19 15:18:00,
2013-11-19 09:19:00,32.5,21.3,29.15,ESE,112,5.8,5.8,63,0.00,CLR,,0.00,WeatherDisplay:10.37,2013-11-19 15:19:00,
2013-11-19 09:20:00,32.5,21.3,29.15,SE,135,5.8,5.8,63,0.00,CLR,,0.00,WeatherDisplay:10.37,2013-11-19 15:20:00,
2013-11-19 09:23:00,32.2,20.6,29.15,SE,135,4.6,4.6,62,0.00,CLR,,0.00,WeatherDisplay:10.37,2013-11-19 15:23:00,
2013-11-19 09:24:00,32.4,21.2,29.15,ESE,112,4.9,4.9,63,0.00,CLR,,0.00,WeatherDisplay:10.37,2013-11-19 15:24:00,
2013-11-19 09:25:00,32.7,21.5,29.12,SE,135,4.6,4.6,63,0.00,CLR,,0.00,WeatherDisplay:10.37,2013-11-19 15:25:00,
2013-11-19 09:28:00,33.1,21.8,29.12,SE,135,5.8,5.8,63,0.00,CLR,,0.00,WeatherDisplay:10.37,2013-11-19 15:28:00,
2013-11-19 09:29:00,32.9,21.3,29.12,South,180,5.8,5.8,62,0.00,CLR,,0.00,WeatherDisplay:10.37,2013-11-19 15:29:00,
2013-11-19 09:30:00,33.1,21.5,29.12,South,180,4.6,4.6,62,0.00,CLR,,0.00,WeatherDisplay:10.37,2013-11-19 15:30:00,
2013-11-19 09:31:00,33.1,21.1,29.12,SSE,158,5.8,5.8,61,0.00,CLR,,0.00,WeatherDisplay:10.37,2013-11-19 15:31:00,
2013-11-19 09:34:00,33.3,20.9,29.12,South,180,5.8,5.8,60,0.00,CLR,,0.00,WeatherDisplay:10.37,2013-11-19 15:34:00,
2013-11-19 09:35:00,33.3,20.9,29.12,ESE,112,5.8,5.8,60,0.00,CLR,,0.00,WeatherDisplay:10.37,2013-11-19 15:35:00,
2013-11-19 09:36:00,33.4,20.6,29.12,South,180,5.8,5.8,59,0.00,CLR,,0.00,WeatherDisplay:10.37,2013-11-19 15:36:00,
2013-11-19 09:39:00,33.1,18.7,29.15,SSE,158,9.2,9.2,55,0.00,CLR,,0.00,WeatherDisplay:10.37,2013-11-19 15:39:00,
2013-11-19 09:40:00,33.1,19.1,29.13,SSE,152,6.0,9.0,56,0.00,CLR,,0.00,WeatherDisplay:10.37,2013-11-19 15:40:00,
2013-11-19 09:41:00,33.1,18.2,29.15,SE,135,8.1,8.1,54,0.00,CLR,,0.00,WeatherDisplay:10.37,2013-11-19 15:41:00,
2013-11-19 09:45:00,33.3,18.8,29.15,SSE,158,6.9,6.9,55,0.00,CLR,,0.00,WeatherDisplay:10.37,2013-11-19 15:45:00,
2013-11-19 09:46:00,33.3,18.8,29.15,SSE,158,6.9,6.9,55,0.00,CLR,,0.00,WeatherDisplay:10.37,2013-11-19 15:46:00,
2013-11-19 09:50:00,33.3,19.7,29.15,ESE,112,6.9,6.9,57,0.00,CLR,,0.00,WeatherDisplay:10.37,2013-11-19 15:50:00,
2013-11-19 09:51:00,33.3,19.7,29.15,SSE,158,6.9,6.9,57,0.00,CLR,,0.00,WeatherDisplay:10.37,2013-11-19 15:51:00,
2013-11-19 09:52:00,33.6,19.6,29.15,SSE,158,5.9,5.9,56,0.00,CLR,,0.00,WeatherDisplay:10.37,2013-11-19 15:52:00,
2013-11-19 09:55:00,33.3,18.4,29.15,South,180,6.9,6.9,54,0.00,CLR,,0.00,WeatherDisplay:10.37,2013-11-19 15:55:00,
2013-11-19 09:56:00,33.1,18.2,29.15,SSE,158,9.2,9.2,54,0.00,CLR,,0.00,WeatherDisplay:10.37,2013-11-19 15:56:00,
2013-11-19 09:57:00,33.4,19.0,29.15,SE,135,9.2,9.2,55,0.00,CLR,,0.00,WeatherDisplay:10.37,2013-11-19 15:57:00,
2013-11-19 10:00:00,33.8,18.9,29.15,SE,135,8.1,8.1,54,0.00,CLR,,0.00,WeatherDisplay:10.37,2013-11-19 16:00:00,
2013-11-19 10:01:00,34.0,18.6,29.15,ESE,112,8.1,8.1,53,0.00,CLR,,0.00,WeatherDisplay:10.37,2013-11-19 16:01:00,
2013-11-19 10:02:00,34.0,18.6,29.15,SSE,158,8.1,8.1,53,0.00,CLR,,0.00,WeatherDisplay:10.37,2013-11-19 16:02:00,
2013-11-19 10:06:00,34.0,18.2,29.15,SSE,158,8.7,8.7,52,0.00,CLR,,0.00,WeatherDisplay:10.37,2013-11-19 16:06:00,
2013-11-19 10:07:00,33.8,18.0,29.15,SE,135,10.4,10.4,52,0.00,CLR,,0.00,WeatherDisplay:10.37,2013-11-19 16:07:00,
2013-11-19 10:08:00,34.0,18.2,29.15,South,180,6.9,6.9,52,0.00,CLR,,0.00,WeatherDisplay:10.37,2013-11-19 16:08:00,
2013-11-19 10:11:00,34.0,18.6,29.15,SE,135,9.2,9.2,53,0.00,CLR,,0.00,WeatherDisplay:10.37,2013-11-19 16:11:00,
2013-11-19 10:12:00,33.8,18.0,29.15,South,180,10.4,10.4,52,0.00,CLR,,0.00,WeatherDisplay:10.37,2013-11-19 16:12:00,
2013-11-19 10:13:00,33.8,18.0,29.15,SE,135,6.9,6.9,52,0.00,CLR,,0.00,WeatherDisplay:10.37,2013-11-19 16:13:00,
2013-11-19 10:16:00,33.6,18.3,29.15,South,180,8.1,8.1,53,0.00,CLR,,0.00,WeatherDisplay:10.37,2013-11-19 16:16:00,
2013-11-19 10:17:00,33.6,18.3,29.15,South,180,6.9,6.9,53,0.00,CLR,,0.00,WeatherDisplay:10.37,2013-11-19 16:17:00,
2013-11-19 10:18:00,33.8,18.5,29.15,South,180,9.7,9.7,53,0.00,CLR,,0.00,WeatherDisplay:10.37,2013-11-19 16:18:00,
2013-11-19 10:21:00,34.3,18.5,29.15,SE,135,6.9,6.9,52,0.00,CLR,,0.00,WeatherDisplay:10.37,2013-11-19 16:21:00,
2013-11-19 10:22:00,34.3,18.5,29.15,SSE,158,7.6,7.6,52,0.00,CLR,,0.00,WeatherDisplay:10.37,2013-11-19 16:22:00,
2013-11-19 10:23:00,34.3,18.1,29.15,ESE,112,8.1,8.1,51,0.00,CLR,,0.00,WeatherDisplay:10.37,2013-11-19 16:23:00,
2013-11-19 10:24:00,34.3,18.1,29.15,East,90,5.8,5.8,51,0.00,CLR,,0.00,WeatherDisplay:10.37,2013-11-19 16:24:00,
2013-11-19 10:26:00,34.5,18.7,29.12,SSE,158,8.1,8.1,52,0.00,CLR,,0.00,WeatherDisplay:10.37,2013-11-19 16:26:00,
2013-11-19 10:27:00,34.5,18.7,29.12,ESE,112,8.1,8.1,52,0.00,CLR,,0.00,WeatherDisplay:10.37,2013-11-19 16:27:00,
2013-11-19 10:28:00,34.5,18.7,29.12,SSE,158,5.8,5.8,52,0.00,CLR,,0.00,WeatherDisplay:10.37,2013-11-19 16:28:00,
2013-11-19 10:29:00,34.5,18.2,29.12,SSE,158,5.8,5.8,51,0.00,CLR,,0.00,WeatherDisplay:10.37,2013-11-19 16:29:00,
2013-11-19 10:31:00,34.3,18.1,29.12,South,180,9.2,9.2,51,0.00,CLR,,0.00,WeatherDisplay:10.37,2013-11-19 16:31:00,
2013-11-19 10:32:00,34.3,18.1,29.12,SE,135,7.4,7.4,51,0.00,CLR,,0.00,WeatherDisplay:10.37,2013-11-19 16:32:00,
2013-11-19 10:33:00,34.3,18.1,29.12,SE,135,9.2,9.2,51,0.00,CLR,,0.00,WeatherDisplay:10.37,2013-11-19 16:33:00,
2013-11-19 10:34:00,34.3,18.1,29.12,SSE,158,13.2,13.2,51,0.00,CLR,,0.00,WeatherDisplay:10.37,2013-11-19 16:34:00,
2013-11-19 10:36:00,34.2,17.9,29.12,South,180,10.4,10.4,51,0.00,CLR,,0.00,WeatherDisplay:10.37,2013-11-19 16:36:00,
2013-11-19 10:38:00,34.2,17.9,29.12,South,180,10.4,10.4,51,0.00,CLR,,0.00,WeatherDisplay:10.37,2013-11-19 16:38:00,
2013-11-19 10:39:00,34.3,18.1,29.12,SSE,158,10.4,10.4,51,0.00,CLR,,0.00,WeatherDisplay:10.37,2013-11-19 16:39:00,
2013-11-19 10:42:00,34.3,18.1,29.12,South,180,5.8,5.8,51,0.00,CLR,,0.00,WeatherDisplay:10.37,2013-11-19 16:42:00,
2013-11-19 10:43:00,34.5,18.2,29.12,SSE,158,6.2,6.2,51,0.00,CLR,,0.00,WeatherDisplay:10.37,2013-11-19 16:43:00,
2013-11-19 10:44:00,34.5,18.2,29.12,SSE,158,5.8,5.9,51,0.00,CLR,,0.00,WeatherDisplay:10.37,2013-11-19 16:44:00,
2013-11-19 10:45:00,34.5,18.7,29.12,South,180,6.9,6.9,52,0.00,CLR,,0.00,WeatherDisplay:10.37,2013-11-19 16:45:00,
2013-11-19 10:47:00,35.1,19.2,29.12,SSE,158,4.6,4.6,52,0.00,CLR,,0.00,WeatherDisplay:10.37,2013-11-19 16:47:00,
2013-11-19 10:48:00,35.2,19.4,29.12,SSE,158,5.8,5.8,52,0.00,CLR,,0.00,WeatherDisplay:10.37,2013-11-19 16:48:00,
2013-11-19 10:49:00,35.2,19.4,29.12,SSE,158,9.2,9.2,52,0.00,CLR,,0.00,WeatherDisplay:10.37,2013-11-19 16:49:00,
2013-11-19 10:51:00,35.2,18.9,29.12,SSW,202,9.2,9.2,51,0.00,CLR,,0.00,WeatherDisplay:10.37,2013-11-19 16:51:00,
2013-11-19 10:52:00,35.2,18.9,29.12,South,180,9.2,9.2,51,0.00,CLR,,0.00,WeatherDisplay:10.37,2013-11-19 16:52:00,
2013-11-19 10:53:00,35.1,18.7,29.12,South,180,9.2,9.2,51,0.00,CLR,,0.00,WeatherDisplay:10.37,2013-11-19 16:53:00,
2013-11-19 10:54:00,35.1,18.7,29.12,West,270,5.8,5.8,51,0.00,CLR,,0.00,WeatherDisplay:10.37,2013-11-19 16:54:00,
2013-11-19 10:55:00,35.2,18.9,29.12,South,180,7.4,7.4,51,0.00,CLR,,0.00,WeatherDisplay:10.37,2013-11-19 16:55:00,
2013-11-19 10:56:00,35.4,19.1,29.12,West,270,6.9,6.9,51,0.00,CLR,,0.00,WeatherDisplay:10.37,2013-11-19 16:56:00,
2013-11-19 10:58:00,35.4,19.5,29.12,WNW,292,5.8,5.8,52,0.00,CLR,,0.00,WeatherDisplay:10.37,2013-11-19 16:58:00,
2013-11-19 10:59:00,35.6,19.7,29.12,WSW,248,4.6,4.6,52,0.00,CLR,,0.00,WeatherDisplay:10.37,2013-11-19 16:59:00,
2013-11-19 11:00:00,35.8,19.4,29.12,WSW,248,4.6,4.6,51,0.00,CLR,,0.00,WeatherDisplay:10.37,2013-11-19 17:00:00,
2013-11-19 11:01:00,36.1,20.2,29.12,SSE,158,3.5,3.5,52,0.00,CLR,,0.00,WeatherDisplay:10.37,2013-11-19 17:01:00,
2013-11-19 11:03:00,36.3,19.9,29.12,SE,135,8.1,8.1,51,0.00,CLR,,0.00,WeatherDisplay:10.37,2013-11-19 17:03:00,
2013-11-19 11:04:00,36.1,19.7,29.12,SSW,202,8.1,8.1,51,0.00,CLR,,0.00,WeatherDisplay:10.37,2013-11-19 17:04:00,
2013-11-19 11:05:00,36.1,19.7,29.12,South,180,5.8,5.8,51,0.00,CLR,,0.00,WeatherDisplay:10.37,2013-11-19 17:05:00,
2013-11-19 11:07:00,36.0,19.6,29.12,SSE,158,5.8,5.8,51,0.00,CLR,,0.00,WeatherDisplay:10.37,2013-11-19 17:07:00,
2013-11-19 11:08:00,36.1,19.3,29.12,SSE,158,5.8,5.8,50,0.00,CLR,,0.00,WeatherDisplay:10.37,2013-11-19 17:08:00,
2013-11-19 11:09:00,36.1,19.3,29.12,South,180,5.8,5.8,50,0.00,CLR,,0.00,WeatherDisplay:10.37,2013-11-19 17:09:00,
2013-11-19 11:10:00,35.8,18.9,29.09,SE,135,3.5,3.5,50,0.00,CLR,,0.00,WeatherDisplay:10.37,2013-11-19 17:10:00,
2013-11-19 11:12:00,35.8,18.9,29.09,ENE,68,6.9,6.9,50,0.00,CLR,,0.00,WeatherDisplay:10.37,2013-11-19 17:12:00,
2013-11-19 11:13:00,35.6,18.8,29.09,ESE,112,9.2,9.2,50,0.00,CLR,,0.00,WeatherDisplay:10.37,2013-11-19 17:13:00,
2013-11-19 11:14:00,35.6,18.8,29.09,SE,135,9.2,9.2,50,0.00,CLR,,0.00,WeatherDisplay:10.37,2013-11-19 17:14:00,
2013-11-19 11:15:00,35.6,18.8,29.09,East,90,9.2,9.2,50,0.00,CLR,,0.00,WeatherDisplay:10.37,2013-11-19 17:15:00,
2013-11-19 11:17:00,35.6,18.8,29.09,ESE,112,8.5,8.5,50,0.00,CLR,,0.00,WeatherDisplay:10.37,2013-11-19 17:17:00,
2013-11-19 11:19:00,35.4,18.6,29.09,East,90,8.1,8.1,50,0.00,CLR,,0.00,WeatherDisplay:10.37,2013-11-19 17:19:00,
2013-11-19 11:20:00,35.4,19.1,29.09,SE,135,8.1,8.1,51,0.00,CLR,,0.00,WeatherDisplay:10.37,2013-11-19 17:20:00,
2013-11-19 11:21:00,35.4,19.1,29.09,SE,135,8.1,8.1,51,0.00,CLR,,0.00,WeatherDisplay:10.37,2013-11-19 17:21:00,
2013-11-19 11:23:00,35.4,19.1,29.09,ESE,112,6.9,6.9,51,0.00,CLR,,0.00,WeatherDisplay:10.37,2013-11-19 17:23:00,
2013-11-19 11:24:00,35.6,19.2,29.09,ESE,112,5.8,5.8,51,0.00,CLR,,0.00,WeatherDisplay:10.37,2013-11-19 17:24:00,
2013-11-19 11:26:00,35.8,18.9,29.09,ESE,112,6.9,6.9,50,0.00,CLR,,0.00,WeatherDisplay:10.37,2013-11-19 17:26:00,
2013-11-19 11:29:00,35.6,18.8,29.09,SE,135,6.9,6.9,50,0.00,CLR,,0.00,WeatherDisplay:10.37,2013-11-19 17:29:00,
2013-11-19 11:30:00,35.6,18.8,29.09,SSE,158,9.2,9.2,50,0.00,CLR,,0.00,WeatherDisplay:10.37,2013-11-19 17:30:00,
2013-11-19 11:31:00,35.6,19.2,29.09,ESE,112,5.8,5.8,51,0.00,CLR,,0.00,WeatherDisplay:10.37,2013-11-19 17:31:00,
2013-11-19 11:34:00,35.8,18.9,29.09,SSE,158,6.9,6.9,50,0.00,CLR,,0.00,WeatherDisplay:10.37,2013-11-19 17:34:00,
2013-11-19 11:35:00,35.6,18.8,29.09,SE,135,9.2,9.2,50,0.00,CLR,,0.00,WeatherDisplay:10.37,2013-11-19 17:35:00,
2013-11-19 11:36:00,35.6,18.8,29.09,SE,135,6.9,6.9,50,0.00,CLR,,0.00,WeatherDisplay:10.37,2013-11-19 17:36:00,
2013-11-19 11:39:00,36.0,19.1,29.09,SE,135,6.2,6.2,50,0.00,CLR,,0.00,WeatherDisplay:10.37,2013-11-19 17:39:00,
2013-11-19 11:40:00,36.0,19.1,29.09,ESE,112,6.9,6.9,50,0.00,CLR,,0.00,WeatherDisplay:10.37,2013-11-19 17:40:00,
2013-11-19 11:41:00,36.0,19.1,29.09,ESE,112,8.1,8.1,50,0.00,CLR,,0.00,WeatherDisplay:10.37,2013-11-19 17:41:00,
2013-11-19 11:42:00,36.1,19.3,29.09,SE,135,8.1,8.1,50,0.00,CLR,,0.00,WeatherDisplay:10.37,2013-11-19 17:42:00,
2013-11-19 11:44:00,36.0,19.1,29.09,ESE,112,9.2,9.2,50,0.00,CLR,,0.00,WeatherDisplay:10.37,2013-11-19 17:44:00,
2013-11-19 11:46:00,35.8,18.9,29.09,SSE,158,6.9,6.9,50,0.00,CLR,,0.00,WeatherDisplay:10.37,2013-11-19 17:46:00,
2013-11-19 11:47:00,36.1,19.3,29.09,SSE,158,6.2,6.2,50,0.00,CLR,,0.00,WeatherDisplay:10.37,2013-11-19 17:47:00,
2013-11-19 11:50:00,36.1,19.3,29.09,SE,135,6.9,7.1,50,0.00,CLR,,0.00,WeatherDisplay:10.37,2013-11-19 17:50:00,
2013-11-19 11:51:00,36.0,19.1,29.09,SE,135,9.2,9.2,50,0.00,CLR,,0.00,WeatherDisplay:10.37,2013-11-19 17:51:00,
2013-11-19 11:52:00,36.0,19.1,29.09,SE,135,10.4,10.4,50,0.00,CLR,,0.00,WeatherDisplay:10.37,2013-11-19 17:52:00,
2013-11-19 11:55:00,36.0,18.6,29.09,SE,127,7.0,10.0,49,0.00,CLR,,0.00,WeatherDisplay:10.37,2013-11-19 17:55:00,
2013-11-19 11:56:00,36.0,19.1,29.09,East,90,10.4,10.4,50,0.00,CLR,,0.00,WeatherDisplay:10.37,2013-11-19 17:56:00,
2013-11-19 11:57:00,36.0,19.1,29.09,ENE,68,7.1,7.1,50,0.00,CLR,,0.00,WeatherDisplay:10.37,2013-11-19 17:57:00,
2013-11-19 12:00:00,36.3,19.4,29.09,ESE,112,7.8,7.8,50,0.00,CLR,,0.00,WeatherDisplay:10.37,2013-11-19 18:00:00,
2013-11-19 12:01:00,36.3,19.4,29.09,ENE,68,8.1,8.1,50,0.00,CLR,,0.00,WeatherDisplay:10.37,2013-11-19 18:01:00,
2013-11-19 12:02:00,36.5,19.6,29.09,SSE,158,8.1,8.1,50,0.00,CLR,,0.00,WeatherDisplay:10.37,2013-11-19 18:02:00,
2013-11-19 12:05:00,36.7,19.8,29.09,ESE,118,5.0,9.0,50,0.00,CLR,,0.00,WeatherDisplay:10.37,2013-11-19 18:05:00,
2013-11-19 12:06:00,36.9,19.9,29.09,SSW,202,5.8,5.8,50,0.00,CLR,,0.00,WeatherDisplay:10.37,2013-11-19 18:06:00,
2013-11-19 12:07:00,37.0,19.6,29.09,SE,135,13.2,13.2,49,0.00,CLR,,0.00,WeatherDisplay:10.37,2013-11-19 18:07:00,
2013-11-19 12:08:00,37.0,19.6,29.09,SSE,158,13.8,13.8,49,0.00,CLR,,0.00,WeatherDisplay:10.37,2013-11-19 18:08:00,
2013-11-19 12:10:00,36.9,19.5,29.09,SE,135,5.8,5.8,49,0.00,CLR,,0.00,WeatherDisplay:10.37,2013-11-19 18:10:00,
2013-11-19 12:11:00,37.2,19.8,29.09,SSE,158,5.8,5.8,49,0.00,CLR,,0.00,WeatherDisplay:10.37,2013-11-19 18:11:00,
2013-11-19 12:12:00,37.4,20.0,29.09,SE,135,8.1,8.1,49,0.00,CLR,,0.00,WeatherDisplay:10.37,2013-11-19 18:12:00,
2013-11-19 12:13:00,37.4,20.0,29.09,SE,135,5.8,5.8,49,0.00,CLR,,0.00,WeatherDisplay:10.37,2013-11-19 18:13:00,
2013-11-19 12:14:00,37.6,20.1,29.09,SSE,158,8.5,8.5,49,0.00,CLR,,0.00,WeatherDisplay:10.37,2013-11-19 18:14:00,
2013-11-19 12:15:00,37.6,18.6,29.09,South,180,13.8,13.8,46,0.00,CLR,,0.00,WeatherDisplay:10.37,2013-11-19 18:15:00,
2013-11-19 12:16:00,37.6,18.6,29.09,South,180,11.5,11.5,46,0.00,CLR,,0.00,WeatherDisplay:10.37,2013-11-19 18:16:00,
2013-11-19 12:18:00,37.8,19.8,29.09,SE,135,8.1,8.1,48,0.00,CLR,,0.00,WeatherDisplay:10.37,2013-11-19 18:18:00,
2013-11-19 12:19:00,37.9,19.5,29.09,ENE,68,10.4,10.4,47,0.00,CLR,,0.00,WeatherDisplay:10.37,2013-11-19 18:19:00,
2013-11-19 12:20:00,37.9,19.5,29.09,SE,135,9.2,9.2,47,0.00,CLR,,0.00,WeatherDisplay:10.37,2013-11-19 18:20:00,
2013-11-19 12:21:00,37.9,19.0,29.09,SSE,158,7.6,7.6,46,0.00,CLR,,0.00,WeatherDisplay:10.37,2013-11-19 18:21:00,
2013-11-19 12:23:00,37.9,18.5,29.09,SSE,158,8.1,8.1,45,0.00,CLR,,0.00,WeatherDisplay:10.37,2013-11-19 18:23:00,
2013-11-19 12:24:00,37.9,18.5,29.09,SE,135,8.1,8.1,45,0.00,CLR,,0.00,WeatherDisplay:10.37,2013-11-19 18:24:00,
2013-11-19 12:25:00,37.9,18.5,29.09,SE,135,10.4,10.4,45,0.00,CLR,,0.00,WeatherDisplay:10.37,2013-11-19 18:25:00,
2013-11-19 12:26:00,37.9,18.5,29.09,East,90,7.4,7.4,45,0.00,CLR,,0.00,WeatherDisplay:10.37,2013-11-19 18:26:00,
2013-11-19 12:28:00,38.1,18.6,29.09,South,180,5.8,5.8,45,0.00,CLR,,0.00,WeatherDisplay:10.37,2013-11-19 18:28:00,
2013-11-19 12:29:00,38.3,18.8,29.09,SSW,202,6.9,6.9,45,0.00,CLR,,0.00,WeatherDisplay:10.37,2013-11-19 18:29:00,
2013-11-19 12:30:00,38.5,19.5,29.09,SSE,158,8.1,8.1,46,0.00,CLR,,0.00,WeatherDisplay:10.37,2013-11-19 18:30:00,
2013-11-19 12:31:00,38.5,19.5,29.09,SE,135,8.1,8.1,46,0.00,CLR,,0.00,WeatherDisplay:10.37,2013-11-19 18:31:00,
2013-11-19 12:33:00,38.3,18.3,29.09,South,180,9.7,9.7,44,0.00,CLR,,0.00,WeatherDisplay:10.37,2013-11-19 18:33:00,
2013-11-19 12:34:00,38.1,18.1,29.09,ESE,112,9.2,9.2,44,0.00,CLR,,0.00,WeatherDisplay:10.37,2013-11-19 18:34:00,
2013-11-19 12:35:00,38.3,18.3,29.09,ESE,112,9.2,9.2,44,0.00,CLR,,0.00,WeatherDisplay:10.37,2013-11-19 18:35:00,
2013-11-19 12:36:00,38.3,18.3,29.09,SSE,158,8.1,8.1,44,0.00,CLR,,0.00,WeatherDisplay:10.37,2013-11-19 18:36:00,
2013-11-19 12:38:00,38.1,18.1,29.09,SSE,158,8.1,8.1,44,0.00,CLR,,0.00,WeatherDisplay:10.37,2013-11-19 18:38:00,
2013-11-19 12:39:00,38.3,18.3,29.09,SE,135,9.2,9.2,44,0.00,CLR,,0.00,WeatherDisplay:10.37,2013-11-19 18:39:00,
2013-11-19 12:40:00,38.5,19.0,29.09,South,180,6.9,6.9,45,0.00,CLR,,0.00,WeatherDisplay:10.37,2013-11-19 18:40:00,
2013-11-19 12:41:00,38.5,19.0,29.09,SE,135,7.8,7.8,45,0.00,CLR,,0.00,WeatherDisplay:10.37,2013-11-19 18:41:00,
2013-11-19 12:43:00,38.7,19.1,29.09,SSE,158,8.1,8.1,45,0.00,CLR,,0.00,WeatherDisplay:10.37,2013-11-19 18:43:00,
2013-11-19 12:45:00,38.8,19.8,29.09,SSE,158,5.6,5.6,46,0.00,CLR,,0.00,WeatherDisplay:10.37,2013-11-19 18:45:00,
2013-11-19 12:46:00,39.0,20.0,29.09,SE,135,10.0,10.0,46,0.00,CLR,,0.00,WeatherDisplay:10.37,2013-11-19 18:46:00,
2013-11-19 12:47:00,39.0,19.4,29.09,ESE,112,10.4,10.4,45,0.00,CLR,,0.00,WeatherDisplay:10.37,2013-11-19 18:47:00,
2013-11-19 12:48:00,38.8,18.8,29.09,SE,135,8.1,8.1,44,0.00,CLR,,0.00,WeatherDisplay:10.37,2013-11-19 18:48:00,
2013-11-19 12:50:00,38.7,18.6,29.09,SSE,158,6.9,6.9,44,0.00,CLR,,0.00,WeatherDisplay:10.37,2013-11-19 18:50:00,
2013-11-19 12:51:00,38.8,18.8,29.09,SSE,158,8.1,8.1,44,0.00,CLR,,0.00,WeatherDisplay:10.37,2013-11-19 18:51:00,
2013-11-19 12:52:00,38.8,18.8,29.09,ESE,112,7.6,7.6,44,0.00,CLR,,0.00,WeatherDisplay:10.37,2013-11-19 18:52:00,
2013-11-19 12:54:00,39.0,19.4,29.09,SE,135,8.1,8.1,45,0.00,CLR,,0.00,WeatherDisplay:10.37,2013-11-19 18:54:00,
2013-11-19 12:55:00,39.2,19.1,29.06,SE,135,7.8,7.8,44,0.00,CLR,,0.00,WeatherDisplay:10.37,2013-11-19 18:55:00,
2013-11-19 12:56:00,39.2,19.1,29.06,SE,135,7.8,7.8,44,0.00,CLR,,0.00,WeatherDisplay:10.37,2013-11-19 18:56:00,
2013-11-19 12:57:00,39.2,19.1,29.06,ESE,112,8.1,8.1,44,0.00,CLR,,0.00,WeatherDisplay:10.37,2013-11-19 18:57:00,
2013-11-19 12:59:00,39.4,19.3,29.06,ESE,112,6.9,6.9,44,0.00,CLR,,0.00,WeatherDisplay:10.37,2013-11-19 18:59:00,
2013-11-19 13:01:00,39.7,19.0,29.06,South,180,12.1,12.1,43,0.00,CLR,,0.00,WeatherDisplay:10.37,2013-11-19 19:01:00,
2013-11-19 13:02:00,39.4,18.2,29.06,SSE,158,12.7,12.7,42,0.00,CLR,,0.00,WeatherDisplay:10.37,2013-11-19 19:02:00,
2013-11-19 13:04:00,39.6,18.9,29.06,SE,135,6.9,6.9,43,0.00,CLR,,0.00,WeatherDisplay:10.37,2013-11-19 19:04:00,
2013-11-19 13:05:00,39.7,18.5,29.06,SSE,158,5.8,5.9,42,0.00,CLR,,0.00,WeatherDisplay:10.37,2013-11-19 19:05:00,
2013-11-19 13:06:00,39.7,18.5,29.06,SSE,158,6.0,6.0,42,0.00,CLR,,0.00,WeatherDisplay:10.37,2013-11-19 19:06:00,
2013-11-19 13:07:00,39.7,18.5,29.06,SSE,158,10.4,10.4,42,0.00,CLR,,0.00,WeatherDisplay:10.37,2013-11-19 19:07:00,
2013-11-19 13:08:00,39.6,17.8,29.06,South,180,10.4,10.4,41,0.00,CLR,,0.00,WeatherDisplay:10.37,2013-11-19 19:08:00,
2013-11-19 13:09:00,39.6,17.8,29.06,SSE,158,8.1,8.1,41,0.00,CLR,,0.00,WeatherDisplay:10.37,2013-11-19 19:09:00,
2013-11-19 13:11:00,39.6,17.8,29.03,ESE,112,9.2,9.2,41,0.00,CLR,,0.00,WeatherDisplay:10.37,2013-11-19 19:11:00,
2013-11-19 13:12:00,39.6,18.3,29.03,SSW,202,5.8,6.4,42,0.00,CLR,,0.00,WeatherDisplay:10.37,2013-11-19 19:12:00,
2013-11-19 13:13:00,39.6,18.3,29.03,SSE,158,7.4,7.4,42,0.00,CLR,,0.00,WeatherDisplay:10.37,2013-11-19 19:13:00,
2013-11-19 13:14:00,39.6,18.3,29.03,ENE,68,6.9,6.9,42,0.00,CLR,,0.00,WeatherDisplay:10.37,2013-11-19 19:14:00,
2013-11-19 13:16:00,39.4,18.2,29.03,South,180,7.1,7.1,42,0.00,CLR,,0.00,WeatherDisplay:10.37,2013-11-19 19:16:00,
2013-11-19 13:17:00,39.4,18.2,29.03,SSE,158,9.2,9.2,42,0.00,CLR,,0.00,WeatherDisplay:10.37,2013-11-19 19:17:00,
2013-11-19 13:19:00,39.4,18.2,29.03,SE,135,10.4,10.4,42,0.00,CLR,,0.00,WeatherDisplay:10.37,2013-11-19 19:19:00,
2013-11-19 13:21:00,39.4,17.6,29.03,South,180,10.4,10.4,41,0.00,CLR,,0.00,WeatherDisplay:10.37,2013-11-19 19:21:00,
2013-11-19 13:22:00,39.4,17.6,29.03,SE,135,8.1,8.1,41,0.00,CLR,,0.00,WeatherDisplay:10.37,2013-11-19 19:22:00,
2013-11-19 13:24:00,39.2,17.4,29.03,ESE,112,8.1,8.1,41,0.00,CLR,,0.00,WeatherDisplay:10.37,2013-11-19 19:24:00,
2013-11-19 13:26:00,39.4,18.2,29.03,SE,135,8.1,8.1,42,0.00,CLR,,0.00,WeatherDisplay:10.37,2013-11-19 19:26:00,
2013-11-19 13:27:00,39.6,18.3,29.03,SE,135,6.9,6.9,42,0.00,CLR,,0.00,WeatherDisplay:10.37,2013-11-19 19:27:00,
2013-11-19 13:29:00,39.6,18.3,29.03,SSE,158,5.9,5.9,42,0.00,CLR,,0.00,WeatherDisplay:10.37,2013-11-19 19:29:00,
2013-11-19 13:30:00,39.6,18.3,29.03,South,180,5.8,6.7,42,0.00,CLR,,0.00,WeatherDisplay:10.37,2013-11-19 19:30:00,
2013-11-19 13:32:00,39.6,18.3,29.03,ESE,112,8.1,8.1,42,0.00,CLR,,0.00,WeatherDisplay:10.37,2013-11-19 19:32:00,
2013-11-19 13:33:00,39.4,18.2,29.03,ESE,112,8.1,8.1,42,0.00,CLR,,0.00,WeatherDisplay:10.37,2013-11-19 19:33:00,
2013-11-19 13:34:00,39.4,18.2,29.03,SSE,158,10.4,10.4,42,0.00,CLR,,0.00,WeatherDisplay:10.37,2013-11-19 19:34:00,
2013-11-19 13:35:00,39.2,18.0,29.03,SSE,158,9.2,9.2,42,0.00,CLR,,0.00,WeatherDisplay:10.37,2013-11-19 19:35:00,
2013-11-19 13:37:00,39.2,18.0,29.03,ESE,112,9.2,9.2,42,0.00,CLR,,0.00,WeatherDisplay:10.37,2013-11-19 19:37:00,
2013-11-19 13:38:00,39.2,18.0,29.03,ESE,112,10.4,10.4,42,0.00,CLR,,0.00,WeatherDisplay:10.37,2013-11-19 19:38:00,
2013-11-19 13:39:00,39.2,17.4,29.03,SSE,158,10.4,10.4,41,0.00,CLR,,0.00,WeatherDisplay:10.37,2013-11-19 19:39:00,
2013-11-19 13:40:00,39.2,18.0,29.03,SSE,158,10.4,10.4,42,0.00,CLR,,0.00,WeatherDisplay:10.37,2013-11-19 19:40:00,
2013-11-19 13:42:00,39.2,17.4,29.03,SSE,158,6.9,6.9,41,0.00,CLR,,0.00,WeatherDisplay:10.37,2013-11-19 19:42:00,
2013-11-19 13:43:00,39.2,18.0,29.03,SE,135,8.1,8.1,42,0.00,CLR,,0.00,WeatherDisplay:10.37,2013-11-19 19:43:00,
2013-11-19 13:44:00,39.4,18.2,29.03,SSE,158,8.1,8.1,42,0.00,CLR,,0.00,WeatherDisplay:10.37,2013-11-19 19:44:00,
2013-11-19 13:45:00,39.4,18.2,29.03,SE,135,9.2,9.2,42,0.00,CLR,,0.00,WeatherDisplay:10.37,2013-11-19 19:45:00,
2013-11-19 13:47:00,39.4,18.2,29.03,SSE,158,8.1,8.1,42,0.00,CLR,,0.00,WeatherDisplay:10.37,2013-11-19 19:47:00,
2013-11-19 13:48:00,39.4,18.2,29.03,SE,135,8.1,8.1,42,0.00,CLR,,0.00,WeatherDisplay:10.37,2013-11-19 19:48:00,
2013-11-19 13:49:00,39.2,18.0,29.03,ENE,68,8.1,8.1,42,0.00,CLR,,0.00,WeatherDisplay:10.37,2013-11-19 19:49:00,
2013-11-19 13:50:00,39.4,18.2,29.03,SSE,158,6.9,6.9,42,0.00,CLR,,0.00,WeatherDisplay:10.37,2013-11-19 19:50:00,
2013-11-19 13:53:00,39.4,17.6,29.03,South,180,8.1,8.1,41,0.00,CLR,,0.00,WeatherDisplay:10.37,2013-11-19 19:53:00,
2013-11-19 13:54:00,39.4,18.2,29.03,ESE,112,6.0,6.0,42,0.00,CLR,,0.00,WeatherDisplay:10.37,2013-11-19 19:54:00,
2013-11-19 13:55:00,39.6,18.3,29.03,SSE,158,6.9,6.9,42,0.00,CLR,,0.00,WeatherDisplay:10.37,2013-11-19 19:55:00,
2013-11-19 13:58:00,39.6,18.3,29.03,SE,135,6.9,6.9,42,0.00,CLR,,0.00,WeatherDisplay:10.37,2013-11-19 19:58:00,
2013-11-19 13:59:00,39.6,18.3,29.03,WSW,248,6.9,6.9,42,0.00,CLR,,0.00,WeatherDisplay:10.37,2013-11-19 19:59:00,
2013-11-19 14:00:00,39.6,18.3,29.03,SE,135,8.7,8.7,42,0.00,CLR,,0.00,WeatherDisplay:10.37,2013-11-19 20:00:00,
2013-11-19 14:01:00,39.6,18.3,29.03,SE,135,10.4,10.4,42,0.00,CLR,,0.00,WeatherDisplay:10.37,2013-11-19 20:01:00,
2013-11-19 14:03:00,39.6,18.3,29.03,SSE,158,11.5,11.5,42,0.00,CLR,,0.00,WeatherDisplay:10.37,2013-11-19 20:03:00,
2013-11-19 14:04:00,39.7,18.5,29.03,South,180,11.5,11.5,42,0.00,CLR,,0.00,WeatherDisplay:10.37,2013-11-19 20:04:00,
2013-11-19 14:05:00,39.7,18.5,29.03,SE,144,6.0,12.0,42,0.00,CLR,,0.00,WeatherDisplay:10.37,2013-11-19 20:05:00,
2013-11-19 14:06:00,39.9,18.7,29.03,SSE,158,5.8,5.8,42,0.00,CLR,,0.00,WeatherDisplay:10.37,2013-11-19 20:06:00,
2013-11-19 14:08:00,39.9,18.1,29.03,SSE,158,15.9,15.9,41,0.00,CLR,,0.00,WeatherDisplay:10.37,2013-11-19 20:08:00,
2013-11-19 14:10:00,39.7,17.4,29.03,SE,135,12.7,12.7,40,0.00,CLR,,0.00,WeatherDisplay:10.37,2013-11-19 20:10:00,
2013-11-19 14:11:00,39.6,17.2,29.03,South,180,10.4,10.4,40,0.00,CLR,,0.00,WeatherDisplay:10.37,2013-11-19 20:11:00,
2013-11-19 14:13:00,39.6,17.2,29.03,SSE,158,9.2,9.2,40,0.00,CLR,,0.00,WeatherDisplay:10.37,2013-11-19 20:13:00,
2013-11-19 14:15:00,39.6,17.2,29.03,SSW,202,10.4,10.4,40,0.00,CLR,,0.00,WeatherDisplay:10.37,2013-11-19 20:15:00,
2013-11-19 14:16:00,39.6,17.2,29.03,South,180,10.4,10.4,40,0.00,CLR,,0.00,WeatherDisplay:10.37,2013-11-19 20:16:00,
2013-11-19 14:18:00,39.2,16.9,29.03,SSE,158,15.0,15.0,40,0.00,CLR,,0.00,WeatherDisplay:10.37,2013-11-19 20:18:00,
2013-11-19 14:20:00,39.4,17.0,29.03,SSE,158,9.2,9.2,40,0.00,CLR,,0.00,WeatherDisplay:10.37,2013-11-19 20:20:00,
2013-11-19 14:21:00,39.4,17.0,29.03,SSE,158,9.2,9.2,40,0.00,CLR,,0.00,WeatherDisplay:10.37,2013-11-19 20:21:00,
2013-11-19 14:22:00,39.4,17.6,29.03,SSE,158,9.4,9.4,41,0.00,CLR,,0.00,WeatherDisplay:10.37,2013-11-19 20:22:00,
2013-11-19 14:23:00,39.4,17.0,29.03,SSE,158,12.8,12.8,40,0.00,CLR,,0.00,WeatherDisplay:10.37,2013-11-19 20:23:00,
2013-11-19 14:25:00,39.6,17.2,29.03,SSE,158,15.0,15.0,40,0.00,CLR,,0.00,WeatherDisplay:10.37,2013-11-19 20:25:00,
2013-11-19 14:26:00,39.6,17.2,29.03,SE,135,15.0,15.0,40,0.00,CLR,,0.00,WeatherDisplay:10.37,2013-11-19 20:26:00,
2013-11-19 14:27:00,39.7,17.9,29.03,SSE,158,9.2,9.2,41,0.00,CLR,,0.00,WeatherDisplay:10.37,2013-11-19 20:27:00,
2013-11-19 14:29:00,40.1,18.3,29.03,SSE,158,6.2,6.2,41,0.00,CLR,,0.00,WeatherDisplay:10.37,2013-11-19 20:29:00,
2013-11-19 14:30:00,40.3,18.4,29.03,SSE,158,5.9,6.2,41,0.00,CLR,,0.00,WeatherDisplay:10.37,2013-11-19 20:30:00,
2013-11-19 14:31:00,40.5,18.6,29.03,SSW,202,6.9,6.9,41,0.00,CLR,,0.00,WeatherDisplay:10.37,2013-11-19 20:31:00,
2013-11-19 14:32:00,40.6,18.7,29.03,SE,135,6.9,6.9,41,0.00,CLR,,0.00,WeatherDisplay:10.37,2013-11-19 20:32:00,
2013-11-19 14:34:00,40.8,18.9,29.03,SSE,158,9.7,9.7,41,0.00,CLR,,0.00,WeatherDisplay:10.37,2013-11-19 20:34:00,
2013-11-19 14:35:00,40.8,18.3,29.03,SSE,158,12.7,12.7,40,0.00,CLR,,0.00,WeatherDisplay:10.37,2013-11-19 20:35:00,
2013-11-19 14:37:00,41.0,18.5,29.03,SE,135,8.1,8.1,40,0.00,CLR,,0.00,WeatherDisplay:10.37,2013-11-19 20:37:00,
2013-11-19 14:38:00,41.2,18.7,29.03,SSE,158,9.2,9.2,40,0.00,CLR,,0.00,WeatherDisplay:10.37,2013-11-19 20:38:00,
2013-11-19 14:40:00,41.2,18.7,29.00,South,180,8.5,8.5,40,0.00,CLR,,0.00,WeatherDisplay:10.37,2013-11-19 20:40:00,
2013-11-19 14:42:00,41.2,18.7,29.00,South,180,7.1,7.1,40,0.00,CLR,,0.00,WeatherDisplay:10.37,2013-11-19 20:42:00,
2013-11-19 14:43:00,41.2,18.7,29.00,SSE,158,8.1,8.1,40,0.00,CLR,,0.00,WeatherDisplay:10.37,2013-11-19 20:43:00,
2013-11-19 14:44:00,41.4,18.8,29.00,South,180,8.1,8.1,40,0.00,CLR,,0.00,WeatherDisplay:10.37,2013-11-19 20:44:00,
2013-11-19 14:45:00,41.5,19.0,29.00,SSE,158,6.9,6.9,40,0.00,CLR,,0.00,WeatherDisplay:10.37,2013-11-19 20:45:00,
2013-11-19 14:46:00,41.5,19.0,29.00,SE,135,6.9,6.9,40,0.00,CLR,,0.00,WeatherDisplay:10.37,2013-11-19 20:46:00,
2013-11-19 14:48:00,41.7,19.1,29.00,SSW,202,10.0,10.0,40,0.00,CLR,,0.00,WeatherDisplay:10.37,2013-11-19 20:48:00,
2013-11-19 14:49:00,41.7,19.1,29.00,South,180,10.4,10.4,40,0.00,CLR,,0.00,WeatherDisplay:10.37,2013-11-19 20:49:00,
2013-11-19 14:50:00,41.7,19.1,29.00,SSE,158,9.2,9.2,40,0.00,CLR,,0.00,WeatherDisplay:10.37,2013-11-19 20:50:00,
2013-11-19 14:51:00,41.7,19.1,29.00,SSE,158,10.4,10.4,40,0.00,CLR,,0.00,WeatherDisplay:10.37,2013-11-19 20:51:00,
2013-11-19 14:53:00,41.7,19.1,29.00,SE,135,6.9,6.9,40,0.00,CLR,,0.00,WeatherDisplay:10.37,2013-11-19 20:53:00,
2013-11-19 14:55:00,41.7,19.1,29.03,South,180,7.8,8.5,40,0.00,CLR,,0.00,WeatherDisplay:10.37,2013-11-19 20:55:00,
2013-11-19 14:56:00,41.7,18.5,29.03,South,180,8.1,8.1,39,0.00,CLR,,0.00,WeatherDisplay:10.37,2013-11-19 20:56:00,
2013-11-19 14:58:00,41.5,19.0,29.03,SSW,202,6.9,6.9,40,0.00,CLR,,0.00,WeatherDisplay:10.37,2013-11-19 20:58:00,
2013-11-19 14:59:00,41.5,19.0,29.03,SSW,202,6.9,6.9,40,0.00,CLR,,0.00,WeatherDisplay:10.37,2013-11-19 20:59:00,
2013-11-19 15:00:00,41.5,19.0,29.03,South,180,10.4,10.4,40,0.00,CLR,,0.00,WeatherDisplay:10.37,2013-11-19 21:00:00,
2013-11-19 15:01:00,41.5,18.4,29.03,South,180,8.1,8.1,39,0.00,CLR,,0.00,WeatherDisplay:10.37,2013-11-19 21:01:00,
2013-11-19 15:04:00,41.7,19.1,29.03,SE,135,9.2,9.2,40,0.00,CLR,,0.00,WeatherDisplay:10.37,2013-11-19 21:04:00,
2013-11-19 15:05:00,41.7,19.1,29.03,South,180,9.2,9.2,40,0.00,CLR,,0.00,WeatherDisplay:10.37,2013-11-19 21:05:00,
2013-11-19 15:06:00,41.9,19.3,29.03,SSE,158,5.8,5.8,40,0.00,CLR,,0.00,WeatherDisplay:10.37,2013-11-19 21:06:00,
2013-11-19 15:09:00,42.1,19.5,29.03,South,180,5.8,5.9,40,0.00,CLR,,0.00,WeatherDisplay:10.37,2013-11-19 21:09:00,
2013-11-19 15:10:00,41.9,19.3,29.00,SSE,158,5.8,5.8,40,0.00,CLR,,0.00,WeatherDisplay:10.37,2013-11-19 21:10:00,
2013-11-19 15:11:00,42.1,18.9,29.00,South,180,11.5,11.5,39,0.00,CLR,,0.00,WeatherDisplay:10.37,2013-11-19 21:11:00,
2013-11-19 15:14:00,42.1,19.5,29.00,SSW,202,5.4,5.4,40,0.00,CLR,,0.00,WeatherDisplay:10.37,2013-11-19 21:14:00,
2013-11-19 15:15:00,42.3,19.6,29.00,SSE,158,4.9,4.9,40,0.00,CLR,,0.00,WeatherDisplay:10.37,2013-11-19 21:15:00,
2013-11-19 15:16:00,42.1,19.5,29.00,South,180,8.1,8.1,40,0.00,CLR,,0.00,WeatherDisplay:10.37,2013-11-19 21:16:00,
2013-11-19 15:19:00,42.3,19.6,29.00,SSE,158,6.0,6.0,40,0.00,CLR,,0.00,WeatherDisplay:10.37,2013-11-19 21:19:00,
2013-11-19 15:20:00,42.3,19.6,29.00,SSW,202,5.8,5.8,40,0.00,CLR,,0.00,WeatherDisplay:10.37,2013-11-19 21:20:00,
2013-11-19 15:21:00,42.3,19.6,29.00,SSE,158,6.4,6.4,40,0.00,CLR,,0.00,WeatherDisplay:10.37,2013-11-19 21:21:00,
2013-11-19 15:22:00,42.3,19.6,29.00,SE,135,10.4,10.4,40,0.00,CLR,,0.00,WeatherDisplay:10.37,2013-11-19 21:22:00,
2013-11-19 15:24:00,41.9,18.7,29.00,South,180,8.1,8.1,39,0.00,CLR,,0.00,WeatherDisplay:10.37,2013-11-19 21:24:00,
2013-11-19 15:25:00,41.9,18.7,29.00,SSE,158,8.1,8.1,39,0.00,CLR,,0.00,WeatherDisplay:10.37,2013-11-19 21:25:00,
2013-11-19 15:26:00,41.7,18.5,29.00,SSE,158,12.7,12.7,39,0.00,CLR,,0.00,WeatherDisplay:10.37,2013-11-19 21:26:00,
2013-11-19 15:28:00,41.5,18.4,29.00,SSE,158,10.4,10.4,39,0.00,CLR,,0.00,WeatherDisplay:10.37,2013-11-19 21:28:00,
2013-11-19 15:29:00,41.5,18.4,29.00,SSE,158,12.7,12.7,39,0.00,CLR,,0.00,WeatherDisplay:10.37,2013-11-19 21:29:00,
2013-11-19 15:30:00,41.5,18.4,29.00,SSE,158,9.2,9.2,39,0.00,CLR,,0.00,WeatherDisplay:10.37,2013-11-19 21:30:00,
2013-11-19 15:31:00,41.5,18.4,29.00,SSE,158,10.4,10.4,39,0.00,CLR,,0.00,WeatherDisplay:10.37,2013-11-19 21:31:00,
2013-11-19 15:32:00,41.2,18.1,29.00,SSE,158,10.4,10.4,39,0.00,CLR,,0.00,WeatherDisplay:10.37,2013-11-19 21:32:00,
2013-11-19 15:33:00,41.2,18.1,29.00,SE,135,12.7,12.7,39,0.00,CLR,,0.00,WeatherDisplay:10.37,2013-11-19 21:33:00,
2013-11-19 15:34:00,41.2,18.1,29.00,SSE,158,6.2,6.9,39,0.00,CLR,,0.00,WeatherDisplay:10.37,2013-11-19 21:34:00,
2013-11-19 15:36:00,41.2,18.1,29.00,SSE,158,12.7,12.7,39,0.00,CLR,,0.00,WeatherDisplay:10.37,2013-11-19 21:36:00,
2013-11-19 15:37:00,41.2,18.1,29.00,SSE,158,10.4,10.4,39,0.00,CLR,,0.00,WeatherDisplay:10.37,2013-11-19 21:37:00,
2013-11-19 15:38:00,41.2,18.1,29.00,SSE,158,10.4,10.4,39,0.00,CLR,,0.00,WeatherDisplay:10.37,2013-11-19 21:38:00,
2013-11-19 15:40:00,41.0,17.9,29.00,South,180,13.8,13.8,39,0.00,CLR,,0.00,WeatherDisplay:10.37,2013-11-19 21:40:00,
2013-11-19 15:41:00,41.0,18.5,29.00,South,180,6.9,6.9,40,0.00,CLR,,0.00,WeatherDisplay:10.37,2013-11-19 21:41:00,
2013-11-19 15:42:00,41.0,18.5,29.00,South,180,6.9,6.9,40,0.00,CLR,,0.00,WeatherDisplay:10.37,2013-11-19 21:42:00,
2013-11-19 15:43:00,41.2,18.7,29.00,SSE,158,4.6,4.6,40,0.00,CLR,,0.00,WeatherDisplay:10.37,2013-11-19 21:43:00,
2013-11-19 15:45:00,41.2,18.7,29.00,South,180,6.9,6.9,40,0.00,CLR,,0.00,WeatherDisplay:10.37,2013-11-19 21:45:00,
2013-11-19 15:46:00,41.0,18.5,29.00,South,180,6.9,6.9,40,0.00,CLR,,0.00,WeatherDisplay:10.37,2013-11-19 21:46:00,
2013-11-19 15:47:00,41.0,18.5,29.00,ESE,112,5.8,5.8,40,0.00,CLR,,0.00,WeatherDisplay:10.37,2013-11-19 21:47:00,
2013-11-19 15:48:00,41.0,18.5,29.00,SSE,158,8.1,8.1,40,0.00,CLR,,0.00,WeatherDisplay:10.37,2013-11-19 21:48:00,
2013-11-19 15:50:00,40.8,18.3,29.00,South,180,5.8,5.8,40,0.00,CLR,,0.00,WeatherDisplay:10.37,2013-11-19 21:50:00,
2013-11-19 15:52:00,40.6,18.2,29.00,SSE,158,8.1,8.1,40,0.00,CLR,,0.00,WeatherDisplay:10.37,2013-11-19 21:52:00,
2013-11-19 15:53:00,40.6,18.2,29.00,SSE,158,9.2,9.2,40,0.00,CLR,,0.00,WeatherDisplay:10.37,2013-11-19 21:53:00,
2013-11-19 15:54:00,40.6,18.2,29.00,South,180,6.9,6.9,40,0.00,CLR,,0.00,WeatherDisplay:10.37,2013-11-19 21:54:00,
2013-11-19 15:55:00,40.6,18.2,29.00,South,180,7.4,7.4,40,0.00,CLR,,0.00,WeatherDisplay:10.37,2013-11-19 21:55:00,
2013-11-19 15:57:00,40.5,18.0,29.00,SE,135,6.9,6.9,40,0.00,CLR,,0.00,WeatherDisplay:10.37,2013-11-19 21:57:00,
2013-11-19 15:58:00,40.5,18.0,29.00,South,180,7.1,7.1,40,0.00,CLR,,0.00,WeatherDisplay:10.37,2013-11-19 21:58:00,
2013-11-19 15:59:00,40.5,18.0,29.00,SSW,202,10.4,10.4,40,0.00,CLR,,0.00,WeatherDisplay:10.37,2013-11-19 21:59:00,
2013-11-19 16:00:00,40.5,18.0,29.00,SSE,158,10.4,10.4,40,0.00,CLR,,0.00,WeatherDisplay:10.37,2013-11-19 22:00:00,
2013-11-19 16:02:00,40.3,17.8,29.00,South,180,5.8,5.8,40,0.00,CLR,,0.00,WeatherDisplay:10.37,2013-11-19 22:02:00,
2013-11-19 16:03:00,40.3,17.8,29.00,SSE,158,5.8,5.8,40,0.00,CLR,,0.00,WeatherDisplay:10.37,2013-11-19 22:03:00,
2013-11-19 16:04:00,40.1,18.3,29.00,SSE,158,4.6,4.6,41,0.00,CLR,,0.00,WeatherDisplay:10.37,2013-11-19 22:04:00,
2013-11-19 16:05:00,39.9,18.1,29.00,SSE,158,8.1,8.1,41,0.00,CLR,,0.00,WeatherDisplay:10.37,2013-11-19 22:05:00,
2013-11-19 16:06:00,39.7,17.9,29.00,SSE,158,6.9,6.9,41,0.00,CLR,,0.00,WeatherDisplay:10.37,2013-11-19 22:06:00,
2013-11-19 16:08:00,39.4,17.6,29.00,ESE,112,5.8,5.8,41,0.00,CLR,,0.00,WeatherDisplay:10.37,2013-11-19 22:08:00,
2013-11-19 16:09:00,39.2,17.4,29.03,SE,135,5.8,5.8,41,0.00,CLR,,0.00,WeatherDisplay:10.37,2013-11-19 22:09:00,
2013-11-19 16:11:00,39.2,17.4,29.03,South,180,6.9,6.9,41,0.00,CLR,,0.00,WeatherDisplay:10.37,2013-11-19 22:11:00,
2013-11-19 16:13:00,39.0,17.8,29.03,ESE,112,5.8,5.8,42,0.00,CLR,,0.00,WeatherDisplay:10.37,2013-11-19 22:13:00,
2013-11-19 16:14:00,38.7,17.5,29.03,SE,135,5.8,5.8,42,0.00,CLR,,0.00,WeatherDisplay:10.37,2013-11-19 22:14:00,
2013-11-19 16:16:00,38.7,17.5,29.03,SSE,158,5.8,5.8,42,0.00,CLR,,0.00,WeatherDisplay:10.37,2013-11-19 22:16:00,
2013-11-19 16:18:00,38.5,17.3,29.03,ESE,112,5.8,5.8,42,0.00,CLR,,0.00,WeatherDisplay:10.37,2013-11-19 22:18:00,
2013-11-19 16:19:00,38.5,17.9,29.03,SE,135,5.8,5.8,43,0.00,CLR,,0.00,WeatherDisplay:10.37,2013-11-19 22:19:00,
2013-11-19 16:20:00,38.5,17.9,29.03,SE,135,5.8,5.8,43,0.00,CLR,,0.00,WeatherDisplay:10.37,2013-11-19 22:20:00,
2013-11-19 16:21:00,38.3,17.7,29.03,SE,135,6.9,6.9,43,0.00,CLR,,0.00,WeatherDisplay:10.37,2013-11-19 22:21:00,
2013-11-19 16:22:00,38.3,17.7,29.03,SE,135,5.8,5.8,43,0.00,CLR,,0.00,WeatherDisplay:10.37,2013-11-19 22:22:00,
2013-11-19 16:23:00,38.1,17.6,29.03,SE,135,5.8,5.8,43,0.00,CLR,,0.00,WeatherDisplay:10.37,2013-11-19 22:23:00,
2013-11-19 16:24:00,38.1,17.6,29.00,SE,135,5.6,5.6,43,0.00,CLR,,0.00,WeatherDisplay:10.37,2013-11-19 22:24:00,
2013-11-19 16:25:00,38.1,17.6,29.00,SSE,158,4.6,5.6,43,0.00,CLR,,0.00,WeatherDisplay:10.37,2013-11-19 22:25:00,
2013-11-19 16:27:00,37.9,17.4,29.00,SSE,158,6.2,6.7,43,0.00,CLR,,0.00,WeatherDisplay:10.37,2013-11-19 22:27:00,
2013-11-19 16:28:00,37.9,17.4,29.00,SE,135,5.8,6.7,43,0.00,CLR,,0.00,WeatherDisplay:10.37,2013-11-19 22:28:00,
2013-11-19 16:29:00,37.9,17.9,29.00,SSE,158,5.8,5.8,44,0.00,CLR,,0.00,WeatherDisplay:10.37,2013-11-19 22:29:00,
2013-11-19 16:30:00,37.9,17.9,29.00,ESE,112,6.2,6.2,44,0.00,CLR,,0.00,WeatherDisplay:10.37,2013-11-19 22:30:00,
2013-11-19 16:32:00,37.8,17.8,29.00,SSE,158,6.9,6.9,44,0.00,CLR,,0.00,WeatherDisplay:10.37,2013-11-19 22:32:00,
2013-11-19 16:33:00,37.8,17.8,29.00,SSE,158,6.9,6.9,44,0.00,CLR,,0.00,WeatherDisplay:10.37,2013-11-19 22:33:00,
2013-11-19 16:35:00,37.6,17.6,29.00,SE,135,5.8,5.8,44,0.00,CLR,,0.00,WeatherDisplay:10.37,2013-11-19 22:35:00,
2013-11-19 16:36:00,37.6,17.6,29.00,SSE,158,5.9,5.9,44,0.00,CLR,,0.00,WeatherDisplay:10.37,2013-11-19 22:36:00,
2013-11-19 16:37:00,37.6,17.6,29.00,SSE,158,5.8,5.8,44,0.00,CLR,,0.00,WeatherDisplay:10.37,2013-11-19 22:37:00,
2013-11-19 16:38:00,37.6,18.1,29.00,SSE,158,5.8,5.8,45,0.00,CLR,,0.00,WeatherDisplay:10.37,2013-11-19 22:38:00,
2013-11-19 16:40:00,37.4,18.0,29.00,SSE,158,4.6,4.6,45,0.00,CLR,,0.00,WeatherDisplay:10.37,2013-11-19 22:40:00,
2013-11-19 16:41:00,37.2,17.8,29.00,SE,135,4.6,4.6,45,0.00,CLR,,0.00,WeatherDisplay:10.37,2013-11-19 22:41:00,
2013-11-19 16:42:00,37.2,17.8,29.00,SE,135,4.6,4.6,45,0.00,CLR,,0.00,WeatherDisplay:10.37,2013-11-19 22:42:00,
2013-11-19 16:43:00,37.0,18.1,29.00,SSE,158,4.6,4.6,46,0.00,CLR,,0.00,WeatherDisplay:10.37,2013-11-19 22:43:00,
2013-11-19 16:45:00,36.9,18.0,29.00,SE,135,3.8,3.8,46,0.00,CLR,,0.00,WeatherDisplay:10.37,2013-11-19 22:45:00,
2013-11-19 16:46:00,36.7,17.8,29.00,SSE,158,3.6,3.6,46,0.00,CLR,,0.00,WeatherDisplay:10.37,2013-11-19 22:46:00,
2013-11-19 16:47:00,36.7,17.8,29.00,SE,135,4.6,4.6,46,0.00,CLR,,0.00,WeatherDisplay:10.37,2013-11-19 22:47:00,
2013-11-19 16:48:00,36.7,18.3,29.00,ESE,112,5.8,5.8,47,0.00,CLR,,0.00,WeatherDisplay:10.37,2013-11-19 22:48:00,
2013-11-19 16:50:00,36.5,18.2,29.00,SE,135,4.6,4.6,47,0.00,CLR,,0.00,WeatherDisplay:10.37,2013-11-19 22:50:00,
2013-11-19 16:51:00,36.5,18.2,29.00,ESE,112,6.9,6.9,47,0.00,CLR,,0.00,WeatherDisplay:10.37,2013-11-19 22:51:00,
2013-11-19 16:53:00,36.3,18.0,29.00,SSE,158,4.6,4.6,47,0.00,CLR,,0.00,WeatherDisplay:10.37,2013-11-19 22:53:00,
2013-11-19 16:56:00,36.1,18.3,28.97,SSE,158,3.5,3.5,48,0.00,CLR,,0.00,WeatherDisplay:10.37,2013-11-19 22:56:00,
2013-11-19 16:58:00,36.1,18.3,28.97,East,90,3.5,3.5,48,0.00,CLR,,0.00,WeatherDisplay:10.37,2013-11-19 22:58:00,
2013-11-19 16:59:00,36.1,18.3,28.97,ESE,112,4.6,4.6,48,0.00,CLR,,0.00,WeatherDisplay:10.37,2013-11-19 22:59:00,
2013-11-19 17:01:00,36.0,18.6,28.97,SE,135,4.9,4.9,49,0.00,CLR,,0.00,WeatherDisplay:10.37,2013-11-19 23:01:00,
2013-11-19 17:03:00,36.0,18.6,28.97,SSE,158,5.8,5.8,49,0.00,CLR,,0.00,WeatherDisplay:10.37,2013-11-19 23:03:00,
2013-11-19 17:04:00,35.8,18.5,28.97,SE,135,5.8,5.8,49,0.00,CLR,,0.00,WeatherDisplay:10.37,2013-11-19 23:04:00,
2013-11-19 17:06:00,35.8,18.9,28.97,SSE,158,3.5,3.6,50,0.00,CLR,,0.00,WeatherDisplay:10.37,2013-11-19 23:06:00,
2013-11-19 17:07:00,35.8,18.9,28.97,SE,135,4.6,4.6,50,0.00,CLR,,0.00,WeatherDisplay:10.37,2013-11-19 23:07:00,
2013-11-19 17:08:00,35.8,18.9,28.97,SSE,158,8.1,8.1,50,0.00,CLR,,0.00,WeatherDisplay:10.37,2013-11-19 23:08:00,
2013-11-19 17:09:00,35.8,18.9,28.97,East,90,8.1,8.1,50,0.00,CLR,,0.00,WeatherDisplay:10.37,2013-11-19 23:09:00,
2013-11-19 17:10:00,35.8,18.9,29.00,ESE,112,8.1,8.1,50,0.00,CLR,,0.00,WeatherDisplay:10.37,2013-11-19 23:10:00,
2013-11-19 17:11:00,35.8,18.9,29.00,SSE,158,4.6,4.6,50,0.00,CLR,,0.00,WeatherDisplay:10.37,2013-11-19 23:11:00,
2013-11-19 17:12:00,35.8,18.9,29.00,SE,135,5.8,5.8,50,0.00,CLR,,0.00,WeatherDisplay:10.37,2013-11-19 23:12:00,
2013-11-19 17:13:00,35.8,18.9,29.00,ENE,68,6.9,6.9,50,0.00,CLR,,0.00,WeatherDisplay:10.37,2013-11-19 23:13:00,
2013-11-19 17:14:00,35.6,18.8,29.00,SSE,158,4.6,4.6,50,0.00,CLR,,0.00,WeatherDisplay:10.37,2013-11-19 23:14:00,
2013-11-19 17:15:00,35.6,18.8,29.00,ESE,112,3.6,3.6,50,0.00,CLR,,0.00,WeatherDisplay:10.37,2013-11-19 23:15:00,
2013-11-19 17:16:00,35.6,19.2,29.00,SSE,158,4.6,4.6,51,0.00,CLR,,0.00,WeatherDisplay:10.37,2013-11-19 23:16:00,
2013-11-19 17:17:00,35.4,19.1,29.00,SE,135,5.8,5.8,51,0.00,CLR,,0.00,WeatherDisplay:10.37,2013-11-19 23:17:00,
2013-11-19 17:18:00,35.4,19.1,29.00,SE,135,3.8,3.8,51,0.00,CLR,,0.00,WeatherDisplay:10.37,2013-11-19 23:18:00,
2013-11-19 17:19:00,35.4,19.1,29.00,SE,135,4.6,4.6,51,0.00,CLR,,0.00,WeatherDisplay:10.37,2013-11-19 23:19:00,
2013-11-19 17:20:00,35.4,19.1,29.00,SE,128,3.0,7.0,51,0.00,CLR,,0.00,WeatherDisplay:10.37,2013-11-19 23:20:00,
2013-11-19 17:22:00,35.2,19.4,29.00,SE,135,4.6,4.6,52,0.00,CLR,,0.00,WeatherDisplay:10.37,2013-11-19 23:22:00,
2013-11-19 17:23:00,35.1,19.2,29.00,SE,135,4.6,4.6,52,0.00,CLR,,0.00,WeatherDisplay:10.37,2013-11-19 23:23:00,
2013-11-19 17:24:00,35.1,19.2,28.97,ESE,112,5.6,5.6,52,0.00,CLR,,0.00,WeatherDisplay:10.37,2013-11-19 23:24:00,
2013-11-19 17:25:00,35.1,19.2,28.97,SE,135,5.8,5.8,52,0.00,CLR,,0.00,WeatherDisplay:10.37,2013-11-19 23:25:00,
2013-11-19 17:27:00,34.9,19.0,28.97,SE,135,5.8,5.8,52,0.00,CLR,,0.00,WeatherDisplay:10.37,2013-11-19 23:27:00,
2013-11-19 17:28:00,34.9,19.0,28.97,SSE,158,4.7,4.7,52,0.00,CLR,,0.00,WeatherDisplay:10.37,2013-11-19 23:28:00,
2013-11-19 17:30:00,34.7,19.3,28.97,SE,135,3.6,3.6,53,0.00,CLR,,0.00,WeatherDisplay:10.37,2013-11-19 23:30:00,
2013-11-19 17:32:00,34.7,19.3,28.97,SSE,158,3.5,3.5,53,0.00,CLR,,0.00,WeatherDisplay:10.37,2013-11-19 23:32:00,
2013-11-19 17:34:00,34.7,19.3,28.97,East,90,4.6,4.6,53,0.00,CLR,,0.00,WeatherDisplay:10.37,2013-11-19 23:34:00,
2013-11-19 17:35:00,34.7,19.3,28.97,SSE,158,3.8,3.8,53,0.00,CLR,,0.00,WeatherDisplay:10.37,2013-11-19 23:35:00,
2013-11-19 17:36:00,34.7,19.3,28.97,SE,135,4.6,4.6,53,0.00,CLR,,0.00,WeatherDisplay:10.37,2013-11-19 23:36:00,
2013-11-19 17:37:00,34.7,19.3,28.97,SE,135,5.8,5.8,53,0.00,CLR,,0.00,WeatherDisplay:10.37,2013-11-19 23:37:00,
2013-11-19 17:39:00,34.7,19.3,28.97,ESE,112,5.9,5.9,53,0.00,CLR,,0.00,WeatherDisplay:10.37,2013-11-19 23:39:00,
2013-11-19 17:40:00,34.9,19.5,28.97,SE,135,6.9,6.9,53,0.00,CLR,,0.00,WeatherDisplay:10.37,2013-11-19 23:40:00,
2013-11-19 17:41:00,34.9,19.5,28.97,SSE,158,8.1,8.1,53,0.00,CLR,,0.00,WeatherDisplay:10.37,2013-11-19 23:41:00,
2013-11-19 17:42:00,34.9,19.5,28.97,East,90,8.1,8.1,53,0.00,CLR,,0.00,WeatherDisplay:10.37,2013-11-19 23:42:00,
2013-11-19 17:43:00,35.1,19.6,28.97,East,90,8.1,8.1,53,0.00,CLR,,0.00,WeatherDisplay:10.37,2013-11-19 23:43:00,
2013-11-19 17:44:00,35.1,19.6,28.97,SE,135,6.9,6.9,53,0.00,CLR,,0.00,WeatherDisplay:10.37,2013-11-19 23:44:00,
2013-11-19 17:46:00,35.1,19.6,28.97,SSE,158,9.2,9.2,53,0.00,CLR,,0.00,WeatherDisplay:10.37,2013-11-19 23:46:00,
2013-11-19 17:47:00,35.2,19.8,28.97,SE,135,9.2,9.2,53,0.00,CLR,,0.00,WeatherDisplay:10.37,2013-11-19 23:47:00,
2013-11-19 17:48:00,35.2,19.8,28.97,SE,135,5.9,5.9,53,0.00,CLR,,0.00,WeatherDisplay:10.37,2013-11-19 23:48:00,
2013-11-19 17:49:00,35.2,19.8,28.97,ESE,112,8.1,8.1,53,0.00,CLR,,0.00,WeatherDisplay:10.37,2013-11-19 23:49:00,
2013-11-19 17:51:00,35.2,19.8,28.97,South,180,8.1,8.1,53,0.00,CLR,,0.00,WeatherDisplay:10.37,2013-11-19 23:51:00,
2013-11-19 17:52:00,35.2,19.8,28.97,SSE,158,5.8,5.8,53,0.00,CLR,,0.00,WeatherDisplay:10.37,2013-11-19 23:52:00,
2013-11-19 17:53:00,35.2,19.8,28.97,SE,135,5.8,5.8,53,0.00,CLR,,0.00,WeatherDisplay:10.37,2013-11-19 23:53:00,
2013-11-19 17:54:00,35.2,19.8,28.97,SE,135,8.1,8.1,53,0.00,CLR,,0.00,WeatherDisplay:10.37,2013-11-19 23:54:00,
2013-11-19 17:55:00,35.2,19.8,28.97,South,180,8.1,8.1,53,0.00,CLR,,0.00,WeatherDisplay:10.37,2013-11-19 23:55:00,
2013-11-19 17:56:00,35.2,19.8,28.97,SE,135,5.8,5.8,53,0.00,CLR,,0.00,WeatherDisplay:10.37,2013-11-19 23:56:00,
2013-11-19 17:58:00,35.2,19.8,28.97,SE,135,8.1,8.1,53,0.00,CLR,,0.00,WeatherDisplay:10.37,2013-11-19 23:58:00,
2013-11-19 17:59:00,35.1,19.6,28.97,SE,135,7.1,7.1,53,0.00,CLR,,0.00,WeatherDisplay:10.37,2013-11-19 23:59:00,
2013-11-19 18:00:00,35.1,19.6,28.97,SSE,158,6.9,6.9,53,0.00,CLR,,0.00,WeatherDisplay:10.37,2013-11-20 00:00:00,
2013-11-19 18:01:00,35.1,19.6,28.97,SE,135,8.1,8.1,53,0.00,CLR,,0.00,WeatherDisplay:10.37,2013-11-20 00:01:00,
2013-11-19 18:03:00,35.1,19.6,28.97,South,180,6.9,6.9,53,0.00,CLR,,0.00,WeatherDisplay:10.37,2013-11-20 00:03:00,
2013-11-19 18:04:00,35.1,19.6,28.97,SSE,158,7.4,7.4,53,0.00,CLR,,0.00,WeatherDisplay:10.37,2013-11-20 00:04:00,
2013-11-19 18:05:00,35.1,19.6,28.97,ESE,112,8.1,8.1,53,0.00,CLR,,0.00,WeatherDisplay:10.37,2013-11-20 00:05:00,
2013-11-19 18:06:00,35.1,19.6,28.97,SSE,158,8.1,8.1,53,0.00,CLR,,0.00,WeatherDisplay:10.37,2013-11-20 00:06:00,
2013-11-19 18:08:00,35.2,19.8,28.97,SE,135,8.1,8.1,53,0.00,CLR,,0.00,WeatherDisplay:10.37,2013-11-20 00:08:00,
2013-11-19 18:09:00,35.2,19.8,28.97,ESE,112,9.2,9.2,53,0.00,CLR,,0.00,WeatherDisplay:10.37,2013-11-20 00:09:00,
2013-11-19 18:10:00,35.1,19.6,28.97,SSE,158,9.2,9.2,53,0.00,CLR,,0.00,WeatherDisplay:10.37,2013-11-20 00:10:00,
2013-11-19 18:11:00,35.2,19.8,28.97,SSE,158,8.1,8.1,53,0.00,CLR,,0.00,WeatherDisplay:10.37,2013-11-20 00:11:00,
2013-11-19 18:13:00,35.1,19.6,28.97,South,180,6.0,6.0,53,0.00,CLR,,0.00,WeatherDisplay:10.37,2013-11-20 00:13:00,
2013-11-19 18:14:00,35.1,19.6,28.97,SSE,158,6.0,6.0,53,0.00,CLR,,0.00,WeatherDisplay:10.37,2013-11-20 00:14:00,
2013-11-19 18:15:00,35.1,19.6,28.97,South,180,8.1,8.1,53,0.00,CLR,,0.00,WeatherDisplay:10.37,2013-11-20 00:15:00,
2013-11-19 18:17:00,35.1,19.6,28.97,SSE,158,8.1,8.1,53,0.00,CLR,,0.00,WeatherDisplay:10.37,2013-11-20 00:17:00,
2013-11-19 18:18:00,35.1,19.6,28.97,SE,135,8.1,8.1,53,0.00,CLR,,0.00,WeatherDisplay:10.37,2013-11-20 00:18:00,
2013-11-19 18:19:00,35.1,19.6,28.97,SSE,158,7.4,7.4,53,0.00,CLR,,0.00,WeatherDisplay:10.37,2013-11-20 00:19:00,
2013-11-19 18:20:00,35.2,19.8,28.97,South,180,8.1,8.1,53,0.00,CLR,,0.00,WeatherDisplay:10.37,2013-11-20 00:20:00,
2013-11-19 18:22:00,35.2,19.8,28.97,SE,135,6.9,6.9,53,0.00,CLR,,0.00,WeatherDisplay:10.37,2013-11-20 00:22:00,
2013-11-19 18:23:00,35.2,19.8,28.97,SE,135,9.4,9.4,53,0.00,CLR,,0.00,WeatherDisplay:10.37,2013-11-20 00:23:00,
2013-11-19 18:25:00,35.2,19.8,28.97,SSE,158,5.8,5.8,53,0.00,CLR,,0.00,WeatherDisplay:10.37,2013-11-20 00:25:00,
2013-11-19 18:26:00,35.2,19.8,28.97,SSE,158,8.1,8.1,53,0.00,CLR,,0.00,WeatherDisplay:10.37,2013-11-20 00:26:00,
2013-11-19 18:27:00,35.2,19.8,28.97,SE,135,8.1,8.1,53,0.00,CLR,,0.00,WeatherDisplay:10.37,2013-11-20 00:27:00,
2013-11-19 18:29:00,35.2,19.8,28.97,SE,135,9.2,9.2,53,0.00,CLR,,0.00,WeatherDisplay:10.37,2013-11-20 00:29:00,
2013-11-19 18:31:00,35.2,19.8,28.97,SE,135,10.4,10.4,53,0.00,CLR,,0.00,WeatherDisplay:10.37,2013-11-20 00:31:00,
2013-11-19 18:32:00,35.2,19.8,28.97,SSE,158,8.1,8.1,53,0.00,CLR,,0.00,WeatherDisplay:10.37,2013-11-20 00:32:00,
2013-11-19 18:34:00,35.2,20.2,28.97,SSE,158,10.4,10.4,54,0.00,CLR,,0.00,WeatherDisplay:10.37,2013-11-20 00:34:00,
2013-11-19 18:36:00,35.1,20.1,28.97,SSE,158,5.8,5.8,54,0.00,CLR,,0.00,WeatherDisplay:10.37,2013-11-20 00:36:00,
2013-11-19 18:37:00,35.1,20.1,28.97,SSE,158,12.7,12.7,54,0.00,CLR,,0.00,WeatherDisplay:10.37,2013-11-20 00:37:00,
2013-11-19 18:39:00,35.1,20.1,28.97,SSE,158,6.9,6.9,54,0.00,CLR,,0.00,WeatherDisplay:10.37,2013-11-20 00:39:00,
2013-11-19 18:41:00,35.1,20.1,28.97,SE,135,5.8,5.8,54,0.00,CLR,,0.00,WeatherDisplay:10.37,2013-11-20 00:41:00,
2013-11-19 18:42:00,35.1,20.1,28.97,SE,135,8.1,8.1,54,0.00,CLR,,0.00,WeatherDisplay:10.37,2013-11-20 00:42:00,
2013-11-19 18:44:00,35.1,20.1,28.97,SE,135,6.9,6.9,54,0.00,CLR,,0.00,WeatherDisplay:10.37,2013-11-20 00:44:00,
2013-11-19 18:46:00,35.1,20.1,28.97,SE,135,8.1,8.1,54,0.00,CLR,,0.00,WeatherDisplay:10.37,2013-11-20 00:46:00,
2013-11-19 18:47:00,35.1,20.1,28.97,South,180,8.1,8.1,54,0.00,CLR,,0.00,WeatherDisplay:10.37,2013-11-20 00:47:00,
2013-11-19 18:49:00,34.9,19.9,28.97,SSW,202,8.1,8.1,54,0.00,CLR,,0.00,WeatherDisplay:10.37,2013-11-20 00:49:00,
2013-11-19 18:50:00,34.9,19.9,28.97,South,180,4.6,4.6,54,0.00,CLR,,0.00,WeatherDisplay:10.37,2013-11-20 00:50:00,
2013-11-19 18:51:00,34.9,19.9,28.97,SSE,158,6.2,6.2,54,0.00,CLR,,0.00,WeatherDisplay:10.37,2013-11-20 00:51:00,
2013-11-19 18:52:00,34.9,19.9,28.97,SE,135,5.8,5.8,54,0.00,CLR,,0.00,WeatherDisplay:10.37,2013-11-20 00:52:00,
2013-11-19 18:55:00,34.7,20.2,28.97,SSE,158,5.8,5.8,55,0.00,CLR,,0.00,WeatherDisplay:10.37,2013-11-20 00:55:00,
2013-11-19 18:56:00,34.7,20.2,28.97,SE,135,5.8,5.8,55,0.00,CLR,,0.00,WeatherDisplay:10.37,2013-11-20 00:56:00,
2013-11-19 18:57:00,34.7,20.2,28.97,SSE,158,4.6,4.6,55,0.00,CLR,,0.00,WeatherDisplay:10.37,2013-11-20 00:57:00,
2013-11-19 18:58:00,34.7,20.2,28.97,SSE,158,6.2,6.2,55,0.00,CLR,,0.00,WeatherDisplay:10.37,2013-11-20 00:58:00,
2013-11-19 19:00:00,34.7,20.2,28.97,SSE,158,8.7,8.7,55,0.00,CLR,,0.00,WeatherDisplay:10.37,2013-11-20 01:00:00,
2013-11-19 19:01:00,34.7,20.2,28.97,SE,135,9.2,9.2,55,0.00,CLR,,0.00,WeatherDisplay:10.37,2013-11-20 01:01:00,
2013-11-19 19:02:00,34.7,20.2,28.97,SSE,158,9.2,9.2,55,0.00,CLR,,0.00,WeatherDisplay:10.37,2013-11-20 01:02:00,
2013-11-19 19:03:00,34.7,20.2,28.97,SSE,158,5.8,5.8,55,0.00,CLR,,0.00,WeatherDisplay:10.37,2013-11-20 01:03:00,
2013-11-19 19:06:00,34.7,20.2,28.97,East,90,5.8,5.8,55,0.00,CLR,,0.00,WeatherDisplay:10.37,2013-11-20 01:06:00,
2013-11-19 19:07:00,34.7,20.2,28.97,SSE,158,5.8,5.8,55,0.00,CLR,,0.00,WeatherDisplay:10.37,2013-11-20 01:07:00,
2013-11-19 19:08:00,34.7,20.6,28.97,South,180,7.1,7.1,56,0.00,CLR,,0.00,WeatherDisplay:10.37,2013-11-20 01:08:00,
2013-11-19 19:11:00,34.7,20.6,28.97,SSE,158,8.1,8.1,56,0.00,CLR,,0.00,WeatherDisplay:10.37,2013-11-20 01:11:00,
2013-11-19 19:12:00,34.7,20.6,28.97,SE,135,10.4,10.4,56,0.00,CLR,,0.00,WeatherDisplay:10.37,2013-11-20 01:12:00,
2013-11-19 19:13:00,34.7,20.6,28.97,ESE,112,10.4,10.4,56,0.00,CLR,,0.00,WeatherDisplay:10.37,2013-11-20 01:13:00,
2013-11-19 19:17:00,34.9,20.3,28.97,SSE,158,13.8,13.8,55,0.00,CLR,,0.00,WeatherDisplay:10.37,2013-11-20 01:17:00,
2013-11-19 19:18:00,34.9,20.8,28.97,South,180,12.7,12.7,56,0.00,CLR,,0.00,WeatherDisplay:10.37,2013-11-20 01:18:00,
2013-11-19 19:22:00,34.9,20.8,28.97,SSE,158,11.5,11.5,56,0.00,CLR,,0.00,WeatherDisplay:10.37,2013-11-20 01:22:00,
2013-11-19 19:23:00,34.9,20.8,28.97,SSE,158,8.1,8.1,56,0.00,CLR,,0.00,WeatherDisplay:10.37,2013-11-20 01:23:00,
2013-11-19 19:27:00,34.9,20.8,28.97,South,180,12.8,12.8,56,0.00,CLR,,0.00,WeatherDisplay:10.37,2013-11-20 01:27:00,
2013-11-19 19:28:00,34.9,20.8,28.97,SE,135,12.7,12.7,56,0.00,CLR,,0.00,WeatherDisplay:10.37,2013-11-20 01:28:00,
2013-11-19 19:29:00,34.9,20.8,28.97,SSE,158,9.2,9.2,56,0.00,CLR,,0.00,WeatherDisplay:10.37,2013-11-20 01:29:00,
2013-11-19 19:33:00,34.9,20.8,28.97,SSE,158,15.2,15.2,56,0.00,CLR,,0.00,WeatherDisplay:10.37,2013-11-20 01:33:00,
2013-11-19 19:34:00,34.9,20.8,28.97,SSE,158,15.0,15.0,56,0.00,CLR,,0.00,WeatherDisplay:10.37,2013-11-20 01:34:00,
2013-11-19 19:38:00,34.9,20.8,28.97,SSW,202,10.4,10.4,56,0.00,CLR,,0.00,WeatherDisplay:10.37,2013-11-20 01:38:00,
2013-11-19 19:39:00,34.9,20.8,28.97,South,180,10.7,10.7,56,0.00,CLR,,0.00,WeatherDisplay:10.37,2013-11-20 01:39:00,
2013-11-19 19:43:00,34.7,20.6,28.94,South,180,10.4,10.4,56,0.00,CLR,,0.00,WeatherDisplay:10.37,2013-11-20 01:43:00,
2013-11-19 19:44:00,34.7,20.6,28.94,WSW,248,10.4,10.4,56,0.00,CLR,,0.00,WeatherDisplay:10.37,2013-11-20 01:44:00,
2013-11-19 19:49:00,34.7,20.6,28.94,South,180,11.5,11.5,56,0.00,CLR,,0.00,WeatherDisplay:10.37,2013-11-20 01:49:00,
2013-11-19 19:50:00,34.7,20.6,28.94,SSE,158,11.5,11.5,56,0.00,CLR,,0.00,WeatherDisplay:10.37,2013-11-20 01:50:00,
2013-11-19 19:54:00,34.7,20.6,28.94,SSE,158,12.1,12.1,56,0.00,CLR,,0.00,WeatherDisplay:10.37,2013-11-20 01:54:00,
2013-11-19 19:55:00,34.7,20.6,29.00,SSE,158,15.0,15.0,56,0.00,CLR,,0.00,WeatherDisplay:10.37,2013-11-20 01:55:00,
2013-11-19 19:59:00,34.7,20.6,29.00,South,180,10.4,10.4,56,0.00,CLR,,0.00,WeatherDisplay:10.37,2013-11-20 01:59:00,
2013-11-19 20:00:00,34.5,20.4,29.00,SE,135,10.4,10.4,56,0.00,CLR,,0.00,WeatherDisplay:10.37,2013-11-20 02:00:00,
2013-11-19 20:04:00,34.5,20.8,29.00,South,180,13.8,13.8,57,0.00,CLR,,0.00,WeatherDisplay:10.37,2013-11-20 02:04:00,
2013-11-19 20:05:00,34.5,20.8,29.00,South,180,13.8,13.8,57,0.00,CLR,,0.00,WeatherDisplay:10.37,2013-11-20 02:05:00,
2013-11-19 20:09:00,34.5,20.8,29.00,SSE,158,10.4,10.4,57,0.00,CLR,,0.00,WeatherDisplay:10.37,2013-11-20 02:09:00,
2013-11-19 20:10:00,34.5,20.8,28.98,SSE,168,8.0,13.0,57,0.00,CLR,,0.00,WeatherDisplay:10.37,2013-11-20 02:10:00,
2013-11-19 20:11:00,34.5,20.8,28.97,ESE,112,10.4,10.4,57,0.00,CLR,,0.00,WeatherDisplay:10.37,2013-11-20 02:11:00,
2013-11-19 20:14:00,34.5,20.8,28.97,SSE,158,10.4,10.4,57,0.00,CLR,,0.00,WeatherDisplay:10.37,2013-11-20 02:14:00,
2013-11-19 20:15:00,34.5,20.8,28.97,SE,135,10.4,10.4,57,0.00,CLR,,0.00,WeatherDisplay:10.37,2013-11-20 02:15:00,
2013-11-19 20:16:00,34.5,20.8,28.97,SE,135,10.4,10.4,57,0.00,CLR,,0.00,WeatherDisplay:10.37,2013-11-20 02:16:00,
2013-11-19 20:19:00,34.5,20.8,28.97,SSW,202,10.4,10.4,57,0.00,CLR,,0.00,WeatherDisplay:10.37,2013-11-20 02:19:00,
2013-11-19 20:20:00,34.5,20.8,28.97,SSW,202,9.2,9.2,57,0.00,CLR,,0.00,WeatherDisplay:10.37,2013-11-20 02:20:00,
2013-11-19 20:21:00,34.5,20.8,28.97,SSE,158,9.2,9.2,57,0.00,CLR,,0.00,WeatherDisplay:10.37,2013-11-20 02:21:00,
2013-11-19 20:24:00,34.3,21.1,28.97,SSE,158,11.5,11.5,58,0.00,CLR,,0.00,WeatherDisplay:10.37,2013-11-20 02:24:00,
2013-11-19 20:25:00,34.3,21.1,28.97,South,180,11.5,11.5,58,0.00,CLR,,0.00,WeatherDisplay:10.37,2013-11-20 02:25:00,
2013-11-19 20:26:00,34.5,20.8,28.97,SSE,158,13.0,13.0,57,0.00,CLR,,0.00,WeatherDisplay:10.37,2013-11-20 02:26:00,
2013-11-19 20:27:00,34.5,20.8,28.97,South,180,12.7,12.7,57,0.00,CLR,,0.00,WeatherDisplay:10.37,2013-11-20 02:27:00,
2013-11-19 20:29:00,34.5,21.2,28.97,SSE,158,12.7,12.7,58,0.00,CLR,,0.00,WeatherDisplay:10.37,2013-11-20 02:29:00,
2013-11-19 20:30:00,34.5,21.2,28.97,South,180,12.7,12.7,58,0.00,CLR,,0.00,WeatherDisplay:10.37,2013-11-20 02:30:00,
2013-11-19 20:32:00,34.5,21.2,28.97,South,180,8.1,8.1,58,0.00,CLR,,0.00,WeatherDisplay:10.37,2013-11-20 02:32:00,
2013-11-19 20:34:00,34.5,21.2,28.97,South,180,9.2,9.2,58,0.00,CLR,,0.00,WeatherDisplay:10.37,2013-11-20 02:34:00,
2013-11-19 20:35:00,34.5,21.2,28.97,South,180,9.2,9.2,58,0.00,CLR,,0.00,WeatherDisplay:10.37,2013-11-20 02:35:00,
2013-11-19 20:36:00,34.5,21.2,28.97,South,180,10.9,10.9,58,0.00,CLR,,0.00,WeatherDisplay:10.37,2013-11-20 02:36:00,
2013-11-19 20:37:00,34.5,21.2,28.97,SSE,158,11.5,11.5,58,0.00,CLR,,0.00,WeatherDisplay:10.37,2013-11-20 02:37:00,
2013-11-19 20:39:00,34.5,21.2,28.97,SSE,158,12.7,12.7,58,0.00,CLR,,0.00,WeatherDisplay:10.37,2013-11-20 02:39:00,
2013-11-19 20:40:00,34.5,21.2,28.97,SSE,158,8.1,8.1,58,0.00,CLR,,0.00,WeatherDisplay:10.37,2013-11-20 02:40:00,
2013-11-19 20:42:00,34.5,21.2,28.97,SSE,158,6.9,6.9,58,0.00,CLR,,0.00,WeatherDisplay:10.37,2013-11-20 02:42:00,
2013-11-19 20:43:00,34.5,21.2,28.97,SSE,158,11.5,11.5,58,0.00,CLR,,0.00,WeatherDisplay:10.37,2013-11-20 02:43:00,
2013-11-19 20:44:00,34.5,20.8,28.97,SSE,158,12.1,12.1,57,0.00,CLR,,0.00,WeatherDisplay:10.37,2013-11-20 02:44:00,
2013-11-19 20:45:00,34.5,20.8,28.97,SSE,158,11.5,11.5,57,0.00,CLR,,0.00,WeatherDisplay:10.37,2013-11-20 02:45:00,
2013-11-19 20:47:00,34.5,20.8,28.97,SSE,158,8.7,8.7,57,0.00,CLR,,0.00,WeatherDisplay:10.37,2013-11-20 02:47:00,
2013-11-19 20:48:00,34.5,20.8,28.97,South,180,9.2,9.2,57,0.00,CLR,,0.00,WeatherDisplay:10.37,2013-11-20 02:48:00,
2013-11-19 20:49:00,34.5,20.8,28.97,SSE,158,8.1,8.1,57,0.00,CLR,,0.00,WeatherDisplay:10.37,2013-11-20 02:49:00,
2013-11-19 20:51:00,34.5,20.8,28.97,South,180,8.1,8.1,57,0.00,CLR,,0.00,WeatherDisplay:10.37,2013-11-20 02:51:00,
2013-11-19 20:52:00,34.5,20.8,28.97,SSE,158,9.2,9.2,57,0.00,CLR,,0.00,WeatherDisplay:10.37,2013-11-20 02:52:00,
2013-11-19 20:53:00,34.5,20.8,28.97,SSE,158,12.7,12.7,57,0.00,CLR,,0.00,WeatherDisplay:10.37,2013-11-20 02:53:00,
2013-11-19 20:54:00,34.5,20.8,28.97,SSE,158,8.1,8.1,57,0.00,CLR,,0.00,WeatherDisplay:10.37,2013-11-20 02:54:00,
2013-11-19 20:56:00,34.5,20.8,28.97,South,180,12.8,12.8,57,0.00,CLR,,0.00,WeatherDisplay:10.37,2013-11-20 02:56:00,
2013-11-19 20:57:00,34.5,20.8,28.97,South,180,13.8,13.8,57,0.00,CLR,,0.00,WeatherDisplay:10.37,2013-11-20 02:57:00,
2013-11-19 20:58:00,34.5,20.8,28.97,SSE,158,11.5,11.5,57,0.00,CLR,,0.00,WeatherDisplay:10.37,2013-11-20 02:58:00,
2013-11-19 20:59:00,34.5,20.8,28.97,SSE,158,10.4,10.4,57,0.00,CLR,,0.00,WeatherDisplay:10.37,2013-11-20 02:59:00,
2013-11-19 21:00:00,34.5,20.8,28.97,SSE,158,10.4,10.4,57,0.00,CLR,,0.00,WeatherDisplay:10.37,2013-11-20 03:00:00,
2013-11-19 21:01:00,34.5,20.8,28.97,SSE,158,10.0,10.0,57,0.00,CLR,,0.00,WeatherDisplay:10.37,2013-11-20 03:01:00,
2013-11-19 21:02:00,34.5,21.2,28.97,SSE,158,11.5,11.5,58,0.00,CLR,,0.00,WeatherDisplay:10.37,2013-11-20 03:02:00,
2013-11-19 21:04:00,34.5,21.2,28.97,SSE,158,11.5,11.5,58,0.00,CLR,,0.00,WeatherDisplay:10.37,2013-11-20 03:04:00,
2013-11-19 21:05:00,34.5,21.2,28.97,SSE,168,7.0,12.0,58,0.00,CLR,,0.00,WeatherDisplay:10.37,2013-11-20 03:05:00,
2013-11-19 21:07:00,34.5,21.2,28.97,SSW,202,8.1,8.1,58,0.00,CLR,,0.00,WeatherDisplay:10.37,2013-11-20 03:07:00,
2013-11-19 21:08:00,34.5,21.2,28.97,SSE,158,11.4,11.4,58,0.00,CLR,,0.00,WeatherDisplay:10.37,2013-11-20 03:08:00,
2013-11-19 21:09:00,34.5,21.2,28.97,SSW,202,12.7,12.7,58,0.00,CLR,,0.00,WeatherDisplay:10.37,2013-11-20 03:09:00,
2013-11-19 21:10:00,34.5,21.2,28.97,South,180,12.7,12.7,58,0.00,CLR,,0.00,WeatherDisplay:10.37,2013-11-20 03:10:00,
2013-11-19 21:12:00,34.5,21.2,28.97,SSE,158,11.5,11.5,58,0.00,CLR,,0.00,WeatherDisplay:10.37,2013-11-20 03:12:00,
2013-11-19 21:13:00,34.5,21.7,28.97,South,180,11.5,11.5,59,0.00,CLR,,0.00,WeatherDisplay:10.37,2013-11-20 03:13:00,
2013-11-19 21:14:00,34.5,21.2,28.97,SSE,158,12.7,12.7,58,0.00,CLR,,0.00,WeatherDisplay:10.37,2013-11-20 03:14:00,
2013-11-19 21:15:00,34.5,21.2,28.97,WSW,248,12.7,12.7,58,0.00,CLR,,0.00,WeatherDisplay:10.37,2013-11-20 03:15:00,
2013-11-19 21:17:00,34.5,21.7,28.97,SE,135,11.5,11.5,59,0.00,CLR,,0.00,WeatherDisplay:10.37,2013-11-20 03:17:00,
2013-11-19 21:18:00,34.5,21.7,28.97,SSE,158,10.4,10.4,59,0.00,CLR,,0.00,WeatherDisplay:10.37,2013-11-20 03:18:00,
2013-11-19 21:20:00,34.5,21.7,28.97,SSE,158,9.2,9.2,59,0.00,CLR,,0.00,WeatherDisplay:10.37,2013-11-20 03:20:00,
2013-11-19 21:21:00,34.5,21.7,28.97,SSE,158,9.2,9.2,59,0.00,CLR,,0.00,WeatherDisplay:10.37,2013-11-20 03:21:00,
2013-11-19 21:23:00,34.5,21.7,28.97,South,180,6.9,6.9,59,0.00,CLR,,0.00,WeatherDisplay:10.37,2013-11-20 03:23:00,
2013-11-19 21:24:00,34.5,21.7,28.97,South,180,10.5,10.5,59,0.00,CLR,,0.00,WeatherDisplay:10.37,2013-11-20 03:24:00,
2013-11-19 21:25:00,34.7,21.8,28.97,SSE,158,11.4,11.4,59,0.00,CLR,,0.00,WeatherDisplay:10.37,2013-11-20 03:25:00,
2013-11-19 21:26:00,34.7,21.8,28.97,South,180,11.5,11.5,59,0.00,CLR,,0.00,WeatherDisplay:10.37,2013-11-20 03:26:00,
2013-11-19 21:28:00,34.5,21.7,28.97,SSE,158,7.4,7.4,59,0.00,CLR,,0.00,WeatherDisplay:10.37,2013-11-20 03:28:00,
2013-11-19 21:29:00,34.5,21.7,28.97,SSW,202,8.1,8.1,59,0.00,CLR,,0.00,WeatherDisplay:10.37,2013-11-20 03:29:00,
2013-11-19 21:30:00,34.5,22.1,28.97,SE,135,11.8,11.8,60,0.00,CLR,,0.00,WeatherDisplay:10.37,2013-11-20 03:30:00,
2013-11-19 21:31:00,34.5,22.1,28.97,South,180,10.5,10.5,60,0.00,CLR,,0.00,WeatherDisplay:10.37,2013-11-20 03:31:00,
2013-11-19 21:33:00,34.7,22.2,28.97,SSE,158,11.5,11.5,60,0.00,CLR,,0.00,WeatherDisplay:10.37,2013-11-20 03:33:00,
2013-11-19 21:34:00,34.7,22.2,28.97,SE,135,15.0,15.0,60,0.00,CLR,,0.00,WeatherDisplay:10.37,2013-11-20 03:34:00,
2013-11-19 21:35:00,34.7,22.2,28.97,SSE,158,15.0,15.0,60,0.00,CLR,,0.00,WeatherDisplay:10.37,2013-11-20 03:35:00,
2013-11-19 21:37:00,34.7,22.2,28.97,South,180,10.4,10.4,60,0.00,CLR,,0.00,WeatherDisplay:10.37,2013-11-20 03:37:00,
2013-11-19 21:38:00,34.7,22.2,28.97,SE,135,10.4,10.4,60,0.00,CLR,,0.00,WeatherDisplay:10.37,2013-11-20 03:38:00,
2013-11-19 21:39:00,34.7,22.6,28.97,SSW,202,10.4,10.4,61,0.00,CLR,,0.00,WeatherDisplay:10.37,2013-11-20 03:39:00,
2013-11-19 21:40:00,34.7,22.6,28.97,South,180,8.5,8.5,61,0.00,CLR,,0.00,WeatherDisplay:10.37,2013-11-20 03:40:00,
2013-11-19 21:42:00,34.7,22.6,28.97,SSE,158,12.7,12.7,61,0.00,CLR,,0.00,WeatherDisplay:10.37,2013-11-20 03:42:00,
2013-11-19 21:43:00,34.9,22.8,28.97,South,180,13.2,13.2,61,0.00,CLR,,0.00,WeatherDisplay:10.37,2013-11-20 03:43:00,
2013-11-19 21:45:00,34.9,22.8,28.97,SSE,158,13.8,13.8,61,0.00,CLR,,0.00,WeatherDisplay:10.37,2013-11-20 03:45:00,
2013-11-19 21:46:00,34.9,22.8,28.97,South,180,8.5,8.5,61,0.00,CLR,,0.00,WeatherDisplay:10.37,2013-11-20 03:46:00,
2013-11-19 21:47:00,34.9,22.8,28.97,SSE,158,11.5,11.5,61,0.00,CLR,,0.00,WeatherDisplay:10.37,2013-11-20 03:47:00,
2013-11-19 21:48:00,34.9,22.8,28.97,SSE,158,11.5,11.5,61,0.00,CLR,,0.00,WeatherDisplay:10.37,2013-11-20 03:48:00,
2013-11-19 21:49:00,34.9,22.8,28.97,South,180,9.2,9.2,61,0.00,CLR,,0.00,WeatherDisplay:10.37,2013-11-20 03:49:00,
2013-11-19 21:50:00,34.9,22.8,28.97,SSE,158,9.2,9.2,61,0.00,CLR,,0.00,WeatherDisplay:10.37,2013-11-20 03:50:00,
2013-11-19 21:51:00,34.9,22.8,28.97,SW,225,9.2,9.2,61,0.00,CLR,,0.00,WeatherDisplay:10.37,2013-11-20 03:51:00,
2013-11-19 21:53:00,34.9,22.8,28.97,SSE,158,10.4,10.4,61,0.00,CLR,,0.00,WeatherDisplay:10.37,2013-11-20 03:53:00,
2013-11-19 21:54:00,35.1,23.0,28.97,South,180,10.4,10.9,61,0.00,CLR,,0.00,WeatherDisplay:10.37,2013-11-20 03:54:00,
2013-11-19 21:55:00,35.1,23.0,28.97,SE,135,12.7,12.7,61,0.00,CLR,,0.00,WeatherDisplay:10.37,2013-11-20 03:55:00,
2013-11-19 21:56:00,35.1,23.3,28.97,SSE,158,9.2,9.2,62,0.00,CLR,,0.00,WeatherDisplay:10.37,2013-11-20 03:56:00,
2013-11-19 21:58:00,35.1,23.0,28.97,SSE,158,17.3,17.3,61,0.00,CLR,,0.00,WeatherDisplay:10.37,2013-11-20 03:58:00,
2013-11-19 21:59:00,35.1,23.0,28.97,SSE,158,10.4,10.4,61,0.00,CLR,,0.00,WeatherDisplay:10.37,2013-11-20 03:59:00,
2013-11-19 22:01:00,35.1,23.3,28.97,SSE,158,13.8,13.8,62,0.00,CLR,,0.00,WeatherDisplay:10.37,2013-11-20 04:01:00,
2013-11-19 22:04:00,35.1,23.3,28.97,SSW,202,12.7,12.7,62,0.00,CLR,,0.00,WeatherDisplay:10.37,2013-11-20 04:04:00,
2013-11-19 22:05:00,35.1,23.3,28.97,South,172,8.0,20.0,62,0.00,CLR,,0.00,WeatherDisplay:10.37,2013-11-20 04:05:00,
2013-11-19 22:06:00,35.1,23.3,28.97,West,270,9.2,9.2,62,0.00,CLR,,0.00,WeatherDisplay:10.37,2013-11-20 04:06:00,
2013-11-19 22:09:00,35.1,23.3,28.97,SE,135,14.3,14.3,62,0.00,CLR,,0.00,WeatherDisplay:10.37,2013-11-20 04:09:00,
2013-11-19 22:10:00,35.1,23.3,28.97,South,180,13.8,13.8,62,0.00,CLR,,0.00,WeatherDisplay:10.37,2013-11-20 04:10:00,
2013-11-19 22:11:00,35.1,23.3,28.97,SSE,158,9.8,9.8,62,0.00,CLR,,0.00,WeatherDisplay:10.37,2013-11-20 04:11:00,
2013-11-19 22:14:00,35.1,23.3,28.97,SSE,158,19.6,19.6,62,0.00,CLR,,0.00,WeatherDisplay:10.37,2013-11-20 04:14:00,
2013-11-19 22:15:00,35.1,23.3,28.97,SSE,158,19.6,19.6,62,0.00,CLR,,0.00,WeatherDisplay:10.37,2013-11-20 04:15:00,
2013-11-19 22:16:00,35.1,23.7,28.97,South,180,9.2,10.2,63,0.00,CLR,,0.00,WeatherDisplay:10.37,2013-11-20 04:16:00,
2013-11-19 22:20:00,35.1,23.7,28.97,SSE,167,9.0,18.0,63,0.00,CLR,,0.00,WeatherDisplay:10.37,2013-11-20 04:20:00,
2013-11-19 22:21:00,35.1,23.7,28.97,SSE,158,8.1,8.1,63,0.00,CLR,,0.00,WeatherDisplay:10.37,2013-11-20 04:21:00,
2013-11-19 22:22:00,35.1,23.7,28.97,SE,135,10.9,10.9,63,0.00,CLR,,0.00,WeatherDisplay:10.37,2013-11-20 04:22:00,
2013-11-19 22:25:00,35.1,23.7,28.97,South,170,7.0,14.0,63,0.00,CLR,,0.00,WeatherDisplay:10.37,2013-11-20 04:25:00,
2013-11-19 22:26:00,35.1,23.7,28.97,SE,135,13.2,13.2,63,0.00,CLR,,0.00,WeatherDisplay:10.37,2013-11-20 04:26:00,
2013-11-19 22:27:00,35.1,23.7,28.97,South,180,12.7,12.7,63,0.00,CLR,,0.00,WeatherDisplay:10.37,2013-11-20 04:27:00,
2013-11-19 22:30:00,35.2,24.3,28.97,SSE,158,20.7,20.7,64,0.00,CLR,,0.00,WeatherDisplay:10.37,2013-11-20 04:30:00,
2013-11-19 22:31:00,35.2,24.3,28.97,SSE,158,20.7,20.7,64,0.00,CLR,,0.00,WeatherDisplay:10.37,2013-11-20 04:31:00,
2013-11-19 22:32:00,35.2,24.3,28.97,SSE,158,12.7,12.7,64,0.00,CLR,,0.00,WeatherDisplay:10.37,2013-11-20 04:32:00,
2013-11-19 22:35:00,35.2,24.3,28.97,South,180,13.8,13.8,64,0.00,CLR,,0.00,WeatherDisplay:10.37,2013-11-20 04:35:00,
2013-11-19 22:36:00,35.2,24.3,28.97,SSE,158,13.8,13.8,64,0.00,CLR,,0.00,WeatherDisplay:10.37,2013-11-20 04:36:00,
2013-11-19 22:37:00,35.2,24.3,28.97,South,180,10.4,10.4,64,0.00,CLR,,0.00,WeatherDisplay:10.37,2013-11-20 04:37:00,
2013-11-19 22:40:00,35.1,24.1,28.97,SE,135,5.8,7.1,64,0.00,CLR,,0.00,WeatherDisplay:10.37,2013-11-20 04:40:00,
2013-11-19 22:41:00,35.1,24.1,28.97,SE,135,8.1,8.1,64,0.00,CLR,,0.00,WeatherDisplay:10.37,2013-11-20 04:41:00,
2013-11-19 22:42:00,35.2,24.3,28.97,SSE,158,14.0,14.0,64,0.00,CLR,,0.00,WeatherDisplay:10.37,2013-11-20 04:42:00,
2013-11-19 22:43:00,35.2,24.3,28.97,SSW,202,13.8,13.8,64,0.00,CLR,,0.00,WeatherDisplay:10.37,2013-11-20 04:43:00,
2013-11-19 22:46:00,35.2,24.3,28.97,South,180,12.7,12.7,64,0.00,CLR,,0.00,WeatherDisplay:10.37,2013-11-20 04:46:00,
2013-11-19 22:47:00,35.4,24.4,28.97,SSE,158,10.4,10.4,64,0.00,CLR,,0.00,WeatherDisplay:10.37,2013-11-20 04:47:00,
2013-11-19 22:48:00,35.4,24.4,28.97,South,180,10.4,10.4,64,0.00,CLR,,0.00,WeatherDisplay:10.37,2013-11-20 04:48:00,
2013-11-19 22:51:00,35.4,24.8,28.97,SSE,158,18.4,18.4,65,0.00,CLR,,0.00,WeatherDisplay:10.37,2013-11-20 04:51:00,
2013-11-19 22:52:00,35.4,24.8,28.97,SSE,158,9.2,9.2,65,0.00,CLR,,0.00,WeatherDisplay:10.37,2013-11-20 04:52:00,
2013-11-19 22:53:00,35.4,24.8,28.97,SSE,158,8.1,8.1,65,0.00,CLR,,0.00,WeatherDisplay:10.37,2013-11-20 04:53:00,
2013-11-19 22:54:00,35.4,24.8,28.97,SSW,202,10.4,10.4,65,0.00,CLR,,0.00,WeatherDisplay:10.37,2013-11-20 04:54:00,
2013-11-19 22:56:00,35.4,24.8,28.97,South,180,11.5,11.5,65,0.00,CLR,,0.00,WeatherDisplay:10.37,2013-11-20 04:56:00,
2013-11-19 22:58:00,35.4,24.8,28.97,South,180,4.6,6.0,65,0.00,CLR,,0.00,WeatherDisplay:10.37,2013-11-20 04:58:00,
2013-11-19 23:00:00,35.4,24.8,28.97,South,180,11.5,11.5,65,0.00,CLR,,0.00,WeatherDisplay:10.37,2013-11-20 05:00:00,
2013-11-19 23:01:00,35.4,24.8,28.97,South,180,11.5,11.5,65,0.00,CLR,,0.00,WeatherDisplay:10.37,2013-11-20 05:01:00,
2013-11-19 23:06:00,35.6,24.6,28.97,SSW,202,20.7,20.7,64,0.00,CLR,,0.00,WeatherDisplay:10.37,2013-11-20 05:06:00,
2013-11-19 23:07:00,35.6,24.6,28.97,SE,135,15.0,15.0,64,0.00,CLR,,0.00,WeatherDisplay:10.37,2013-11-20 05:07:00,
2013-11-19 23:11:00,35.8,24.8,28.97,South,180,15.0,15.0,64,0.00,CLR,,0.00,WeatherDisplay:10.37,2013-11-20 05:11:00,
2013-11-19 23:12:00,35.6,24.6,28.97,SE,135,13.8,13.8,64,0.00,CLR,,0.00,WeatherDisplay:10.37,2013-11-20 05:12:00,
2013-11-19 23:16:00,35.8,24.8,28.97,SSE,158,12.8,12.8,64,0.00,CLR,,0.00,WeatherDisplay:10.37,2013-11-20 05:16:00,
2013-11-19 23:17:00,35.8,24.8,28.97,SSE,158,17.3,17.3,64,0.00,CLR,,0.00,WeatherDisplay:10.37,2013-11-20 05:17:00,
2013-11-19 23:18:00,35.8,24.8,28.97,South,180,12.7,12.7,64,0.00,CLR,,0.00,WeatherDisplay:10.37,2013-11-20 05:18:00,
2013-11-19 23:21:00,35.8,24.8,28.97,SW,225,17.3,17.3,64,0.00,CLR,,0.00,WeatherDisplay:10.37,2013-11-20 05:21:00,
2013-11-19 23:22:00,35.8,24.4,28.97,SSE,158,17.3,17.3,63,0.00,CLR,,0.00,WeatherDisplay:10.37,2013-11-20 05:22:00,
2013-11-19 23:23:00,35.8,24.4,28.97,SSE,158,17.3,17.3,63,0.00,CLR,,0.00,WeatherDisplay:10.37,2013-11-20 05:23:00,
2013-11-19 23:24:00,35.8,24.8,28.94,SE,135,11.5,11.5,64,0.00,CLR,,0.00,WeatherDisplay:10.37,2013-11-20 05:24:00,
2013-11-19 23:26:00,36.0,24.6,28.94,SSW,202,17.3,17.3,63,0.00,CLR,,0.00,WeatherDisplay:10.37,2013-11-20 05:26:00,
2013-11-19 23:27:00,36.0,24.6,28.94,SSE,158,17.3,17.3,63,0.00,CLR,,0.00,WeatherDisplay:10.37,2013-11-20 05:27:00,
2013-11-19 23:28:00,36.0,24.6,28.94,WSW,248,17.5,17.5,63,0.00,CLR,,0.00,WeatherDisplay:10.37,2013-11-20 05:28:00,
2013-11-19 23:29:00,36.0,24.6,28.94,South,180,17.3,17.3,63,0.00,CLR,,0.00,WeatherDisplay:10.37,2013-11-20 05:29:00,
2013-11-19 23:31:00,36.0,24.6,28.94,SSE,158,13.7,13.7,63,0.00,CLR,,0.00,WeatherDisplay:10.37,2013-11-20 05:31:00,
2013-11-19 23:32:00,36.0,24.6,28.94,SSE,158,13.7,13.7,63,0.00,CLR,,0.00,WeatherDisplay:10.37,2013-11-20 05:32:00,
2013-11-19 23:33:00,36.0,24.6,28.94,South,180,13.8,13.8,63,0.00,CLR,,0.00,WeatherDisplay:10.37,2013-11-20 05:33:00,
2013-11-19 23:34:00,36.0,24.6,28.94,South,180,13.8,13.8,63,0.00,CLR,,0.00,WeatherDisplay:10.37,2013-11-20 05:34:00,
2013-11-19 23:37:00,36.0,24.6,28.94,SSE,158,17.3,17.3,63,0.00,CLR,,0.00,WeatherDisplay:10.37,2013-11-20 05:37:00,
2013-11-19 23:38:00,36.1,24.4,28.94,SSE,158,15.2,15.2,62,0.00,CLR,,0.00,WeatherDisplay:10.37,2013-11-20 05:38:00,
2013-11-19 23:39:00,36.1,24.4,28.94,South,180,17.3,17.3,62,0.00,CLR,,0.00,WeatherDisplay:10.37,2013-11-20 05:39:00,
2013-11-19 23:40:00,36.1,24.7,28.94,SE,135,17.3,17.3,63,0.00,CLR,,0.00,WeatherDisplay:10.37,2013-11-20 05:40:00,
2013-11-19 23:42:00,36.1,24.4,28.94,SSW,202,15.4,15.4,62,0.00,CLR,,0.00,WeatherDisplay:10.37,2013-11-20 05:42:00,
2013-11-19 23:43:00,36.1,24.4,28.94,WSW,248,15.0,15.0,62,0.00,CLR,,0.00,WeatherDisplay:10.37,2013-11-20 05:43:00,
2013-11-19 23:44:00,36.1,24.4,28.94,South,180,15.4,15.4,62,0.00,CLR,,0.00,WeatherDisplay:10.37,2013-11-20 05:44:00,
2013-11-19 23:45:00,36.1,24.4,28.94,SSW,202,15.0,15.0,62,0.00,CLR,,0.00,WeatherDisplay:10.37,2013-11-20 05:45:00,
2013-11-19 23:47:00,36.1,24.4,28.94,SSE,158,18.4,18.4,62,0.00,CLR,,0.00,WeatherDisplay:10.37,2013-11-20 05:47:00,
2013-11-19 23:48:00,36.1,24.4,28.94,SSE,158,24.2,24.2,62,0.00,CLR,,0.00,WeatherDisplay:10.37,2013-11-20 05:48:00,
2013-11-19 23:49:00,36.1,24.4,28.94,SSE,158,24.2,24.2,62,0.00,CLR,,0.00,WeatherDisplay:10.37,2013-11-20 05:49:00,
2013-11-19 23:50:00,36.1,24.4,28.94,South,180,9.4,9.4,62,0.00,CLR,,0.00,WeatherDisplay:10.37,2013-11-20 05:50:00,
2013-11-19 23:51:00,36.1,24.4,28.94,SSE,158,11.5,11.5,62,0.00,CLR,,0.00,WeatherDisplay:10.37,2013-11-20 05:51:00,
2013-11-19 23:53:00,36.1,24.4,28.94,SSE,158,13.8,13.8,62,0.00,CLR,,0.00,WeatherDisplay:10.37,2013-11-20 05:53:00,
2013-11-19 23:54:00,36.1,24.4,28.94,SSE,158,11.5,11.5,62,0.00,CLR,,0.00,WeatherDisplay:10.37,2013-11-20 05:54:00,
2013-11-19 23:55:00,36.1,24.4,28.94,SSE,158,12.7,12.7,62,0.00,CLR,,0.00,WeatherDisplay:10.37,2013-11-20 05:55:00,
2013-11-19 23:57:00,36.1,24.4,28.94,SSW,202,8.1,8.1,62,0.00,CLR,,0.00,WeatherDisplay:10.37,2013-11-20 05:57:00,
2013-11-19 23:58:00,36.1,24.4,28.94,SSE,158,9.8,9.8,62,0.00,CLR,,0.00,WeatherDisplay:10.37,2013-11-20 05:58:00,
2013-11-19 23:59:00,36.1,24.0,28.94,SSW,202,14.3,14.3,61,0.00,CLR,,0.00,WeatherDisplay:10.37,2013-11-20 05:59:00,